
<gpx xmlns="http://www.topografix.com/GPX/1/1" xmlns:gpxx="http://www.garmin.com/xmlschemas/GpxExtensions/v3" xmlns:xsi="http://www.w3.org/2001/XMLSchema-instance" version="1.1" creator="Adze - http://kobotsw.com/apps/adze" xsi:schemaLocation="http://www.topografix.com/GPX/1/1 http://www.topografix.com/GPX/1/1/gpx.xsd http://www.garmin.com/xmlschemas/GpxExtensions/v3 http://www.garmin.com/xmlschemas/GpxExtensionsv3.xsd">
    <metadata>
        <name>Untitled Document</name>
        <link href="http://www.garmin.com"></link>
        <time>2018-02-26T03:58:33.728Z</time>
    </metadata>
    <wpt lon="100.943067" lat="14.518200">
        <ele>63.000000</ele>
        <time>2015-09-26T04:37:36Z</time>
        <name>BaanDaraResort</name>
        <cmt>26-SEP-15 11:37:36AM</cmt>
        <desc>26-SEP-15 11:37:36AM</desc>
        <sym>Lodging</sym>
        <extensions>
            <gpxx:WaypointExtension xmlns:gpxx="http://www.garmin.com/xmlschemas/GpxExtensions/v3">
                <gpxx:DisplayMode>SymbolOnly</gpxx:DisplayMode>
            </gpxx:WaypointExtension>
        </extensions>
    </wpt>
    <wpt lon="100.965328" lat="14.509672">
        <ele>30.000000</ele>
        <time>2015-09-27T05:14:29Z</time>
        <name>Water Sunday</name>
        <sym>Drinking Water</sym>
        <extensions>
            <gpxx:WaypointExtension xmlns:gpxx="http://www.garmin.com/xmlschemas/GpxExtensions/v3">
                <gpxx:DisplayMode>SymbolOnly</gpxx:DisplayMode>
            </gpxx:WaypointExtension>
        </extensions>
    </wpt>
    <trk>
        <name>Sunday</name>
        <extensions>
            <gpxx:TrackExtension xmlns:gpxx="http://www.garmin.com/xmlschemas/GpxExtensions/v3">
                <gpxx:DisplayColor>Green</gpxx:DisplayColor>
            </gpxx:TrackExtension>
        </extensions>
        <trkseg>
            <trkpt lon="100.943265" lat="14.518224">
                <ele>32.340000</ele>
                <time>2015-09-27T02:40:36Z</time>
            </trkpt>
            <trkpt lon="100.943222" lat="14.518230">
                <ele>32.340000</ele>
                <time>2015-09-27T02:40:49Z</time>
            </trkpt>
            <trkpt lon="100.943147" lat="14.518234">
                <ele>32.340000</ele>
                <time>2015-09-27T02:40:55Z</time>
            </trkpt>
            <trkpt lon="100.942971" lat="14.518260">
                <ele>32.340000</ele>
                <time>2015-09-27T02:41:07Z</time>
            </trkpt>
            <trkpt lon="100.942872" lat="14.518534">
                <ele>32.340000</ele>
                <time>2015-09-27T02:41:20Z</time>
            </trkpt>
            <trkpt lon="100.942890" lat="14.518579">
                <ele>32.340000</ele>
                <time>2015-09-27T02:41:30Z</time>
            </trkpt>
            <trkpt lon="100.942863" lat="14.518593">
                <ele>34.740000</ele>
                <time>2015-09-27T02:41:41Z</time>
            </trkpt>
            <trkpt lon="100.942877" lat="14.518630">
                <ele>35.230000</ele>
                <time>2015-09-27T02:41:46Z</time>
            </trkpt>
            <trkpt lon="100.942924" lat="14.518670">
                <ele>36.670000</ele>
                <time>2015-09-27T02:41:52Z</time>
            </trkpt>
            <trkpt lon="100.942920" lat="14.518709">
                <ele>36.190000</ele>
                <time>2015-09-27T02:42:06Z</time>
            </trkpt>
            <trkpt lon="100.942862" lat="14.518695">
                <ele>24.650000</ele>
                <time>2015-09-27T02:42:29Z</time>
            </trkpt>
            <trkpt lon="100.942899" lat="14.518673">
                <ele>25.610000</ele>
                <time>2015-09-27T02:43:05Z</time>
            </trkpt>
            <trkpt lon="100.942892" lat="14.518675">
                <ele>26.570000</ele>
                <time>2015-09-27T02:43:38Z</time>
            </trkpt>
            <trkpt lon="100.942912" lat="14.518652">
                <ele>28.020000</ele>
                <time>2015-09-27T02:44:17Z</time>
            </trkpt>
            <trkpt lon="100.942936" lat="14.518682">
                <ele>31.380000</ele>
                <time>2015-09-27T02:44:49Z</time>
            </trkpt>
            <trkpt lon="100.942953" lat="14.518697">
                <ele>37.150000</ele>
                <time>2015-09-27T02:45:27Z</time>
            </trkpt>
            <trkpt lon="100.942932" lat="14.518746">
                <ele>33.780000</ele>
                <time>2015-09-27T02:45:57Z</time>
            </trkpt>
            <trkpt lon="100.942939" lat="14.518695">
                <ele>32.340000</ele>
                <time>2015-09-27T02:46:26Z</time>
            </trkpt>
            <trkpt lon="100.942940" lat="14.518663">
                <ele>34.740000</ele>
                <time>2015-09-27T02:47:00Z</time>
            </trkpt>
            <trkpt lon="100.942932" lat="14.518691">
                <ele>33.780000</ele>
                <time>2015-09-27T02:47:37Z</time>
            </trkpt>
            <trkpt lon="100.942897" lat="14.518699">
                <ele>34.260000</ele>
                <time>2015-09-27T02:48:12Z</time>
            </trkpt>
            <trkpt lon="100.942929" lat="14.518706">
                <ele>33.780000</ele>
                <time>2015-09-27T02:48:49Z</time>
            </trkpt>
            <trkpt lon="100.942922" lat="14.518695">
                <ele>36.670000</ele>
                <time>2015-09-27T02:49:23Z</time>
            </trkpt>
            <trkpt lon="100.942915" lat="14.518678">
                <ele>38.590000</ele>
                <time>2015-09-27T02:49:51Z</time>
            </trkpt>
            <trkpt lon="100.942935" lat="14.518708">
                <ele>37.630000</ele>
                <time>2015-09-27T02:50:21Z</time>
            </trkpt>
            <trkpt lon="100.942916" lat="14.518719">
                <ele>39.070000</ele>
                <time>2015-09-27T02:50:46Z</time>
            </trkpt>
            <trkpt lon="100.942923" lat="14.518712">
                <ele>38.590000</ele>
                <time>2015-09-27T02:51:17Z</time>
            </trkpt>
            <trkpt lon="100.942917" lat="14.518699">
                <ele>32.340000</ele>
                <time>2015-09-27T02:51:54Z</time>
            </trkpt>
            <trkpt lon="100.942892" lat="14.518732">
                <ele>25.130000</ele>
                <time>2015-09-27T02:52:34Z</time>
            </trkpt>
            <trkpt lon="100.942920" lat="14.518723">
                <ele>22.250000</ele>
                <time>2015-09-27T02:53:12Z</time>
            </trkpt>
            <trkpt lon="100.942892" lat="14.518730">
                <ele>22.250000</ele>
                <time>2015-09-27T02:53:46Z</time>
            </trkpt>
            <trkpt lon="100.942920" lat="14.518691">
                <ele>21.770000</ele>
                <time>2015-09-27T02:54:15Z</time>
            </trkpt>
            <trkpt lon="100.942937" lat="14.518680">
                <ele>22.730000</ele>
                <time>2015-09-27T02:54:49Z</time>
            </trkpt>
            <trkpt lon="100.942958" lat="14.518670">
                <ele>24.170000</ele>
                <time>2015-09-27T02:55:22Z</time>
            </trkpt>
            <trkpt lon="100.942964" lat="14.518667">
                <ele>26.570000</ele>
                <time>2015-09-27T02:55:49Z</time>
            </trkpt>
            <trkpt lon="100.942950" lat="14.518676">
                <ele>28.980000</ele>
                <time>2015-09-27T02:56:19Z</time>
            </trkpt>
            <trkpt lon="100.942913" lat="14.518674">
                <ele>26.090000</ele>
                <time>2015-09-27T02:56:51Z</time>
            </trkpt>
            <trkpt lon="100.942918" lat="14.518666">
                <ele>26.570000</ele>
                <time>2015-09-27T02:57:29Z</time>
            </trkpt>
            <trkpt lon="100.942940" lat="14.518680">
                <ele>28.020000</ele>
                <time>2015-09-27T02:57:59Z</time>
            </trkpt>
            <trkpt lon="100.942955" lat="14.518654">
                <ele>30.900000</ele>
                <time>2015-09-27T02:58:25Z</time>
            </trkpt>
            <trkpt lon="100.942968" lat="14.518695">
                <ele>32.340000</ele>
                <time>2015-09-27T02:58:48Z</time>
            </trkpt>
            <trkpt lon="100.942945" lat="14.518678">
                <ele>33.300000</ele>
                <time>2015-09-27T02:59:14Z</time>
            </trkpt>
            <trkpt lon="100.942944" lat="14.518652">
                <ele>37.150000</ele>
                <time>2015-09-27T02:59:46Z</time>
            </trkpt>
            <trkpt lon="100.942923" lat="14.518658">
                <ele>38.110000</ele>
                <time>2015-09-27T03:00:00Z</time>
            </trkpt>
            <trkpt lon="100.942917" lat="14.518648">
                <ele>38.110000</ele>
                <time>2015-09-27T03:00:01Z</time>
            </trkpt>
            <trkpt lon="100.942885" lat="14.518646">
                <ele>37.150000</ele>
                <time>2015-09-27T03:00:03Z</time>
            </trkpt>
            <trkpt lon="100.942801" lat="14.518640">
                <ele>36.190000</ele>
                <time>2015-09-27T03:00:07Z</time>
            </trkpt>
            <trkpt lon="100.942773" lat="14.518672">
                <ele>34.740000</ele>
                <time>2015-09-27T03:00:10Z</time>
            </trkpt>
            <trkpt lon="100.942776" lat="14.518697">
                <ele>34.260000</ele>
                <time>2015-09-27T03:00:11Z</time>
            </trkpt>
            <trkpt lon="100.942779" lat="14.518724">
                <ele>33.780000</ele>
                <time>2015-09-27T03:00:12Z</time>
            </trkpt>
            <trkpt lon="100.942777" lat="14.519173">
                <ele>31.380000</ele>
                <time>2015-09-27T03:00:25Z</time>
            </trkpt>
            <trkpt lon="100.942763" lat="14.519713">
                <ele>30.420000</ele>
                <time>2015-09-27T03:00:40Z</time>
            </trkpt>
            <trkpt lon="100.942745" lat="14.519806">
                <ele>30.420000</ele>
                <time>2015-09-27T03:00:45Z</time>
            </trkpt>
            <trkpt lon="100.942672" lat="14.519896">
                <ele>30.420000</ele>
                <time>2015-09-27T03:00:58Z</time>
            </trkpt>
            <trkpt lon="100.942670" lat="14.519916">
                <ele>28.500000</ele>
                <time>2015-09-27T03:01:29Z</time>
            </trkpt>
            <trkpt lon="100.942668" lat="14.519944">
                <ele>29.460000</ele>
                <time>2015-09-27T03:01:58Z</time>
            </trkpt>
            <trkpt lon="100.942583" lat="14.519973">
                <ele>29.460000</ele>
                <time>2015-09-27T03:02:02Z</time>
            </trkpt>
            <trkpt lon="100.942208" lat="14.520006">
                <ele>30.900000</ele>
                <time>2015-09-27T03:02:18Z</time>
            </trkpt>
            <trkpt lon="100.941992" lat="14.519966">
                <ele>31.380000</ele>
                <time>2015-09-27T03:02:32Z</time>
            </trkpt>
            <trkpt lon="100.941717" lat="14.519850">
                <ele>31.860000</ele>
                <time>2015-09-27T03:02:47Z</time>
            </trkpt>
            <trkpt lon="100.941629" lat="14.519777">
                <ele>32.340000</ele>
                <time>2015-09-27T03:02:55Z</time>
            </trkpt>
            <trkpt lon="100.941591" lat="14.519714">
                <ele>31.860000</ele>
                <time>2015-09-27T03:03:01Z</time>
            </trkpt>
            <trkpt lon="100.941622" lat="14.519509">
                <ele>32.820000</ele>
                <time>2015-09-27T03:03:17Z</time>
            </trkpt>
            <trkpt lon="100.941627" lat="14.519481">
                <ele>32.820000</ele>
                <time>2015-09-27T03:03:19Z</time>
            </trkpt>
            <trkpt lon="100.941498" lat="14.519543">
                <ele>32.820000</ele>
                <time>2015-09-27T03:03:30Z</time>
            </trkpt>
            <trkpt lon="100.941194" lat="14.519753">
                <ele>36.190000</ele>
                <time>2015-09-27T03:03:46Z</time>
            </trkpt>
            <trkpt lon="100.940878" lat="14.520100">
                <ele>37.630000</ele>
                <time>2015-09-27T03:04:00Z</time>
            </trkpt>
            <trkpt lon="100.940804" lat="14.520182">
                <ele>37.630000</ele>
                <time>2015-09-27T03:04:02Z</time>
            </trkpt>
            <trkpt lon="100.940545" lat="14.520341">
                <ele>35.230000</ele>
                <time>2015-09-27T03:04:07Z</time>
            </trkpt>
            <trkpt lon="100.940064" lat="14.520447">
                <ele>31.380000</ele>
                <time>2015-09-27T03:04:15Z</time>
            </trkpt>
            <trkpt lon="100.939860" lat="14.520442">
                <ele>29.940000</ele>
                <time>2015-09-27T03:04:19Z</time>
            </trkpt>
            <trkpt lon="100.939058" lat="14.520242">
                <ele>29.460000</ele>
                <time>2015-09-27T03:04:37Z</time>
            </trkpt>
            <trkpt lon="100.938544" lat="14.520082">
                <ele>30.900000</ele>
                <time>2015-09-27T03:04:50Z</time>
            </trkpt>
            <trkpt lon="100.938424" lat="14.520028">
                <ele>30.900000</ele>
                <time>2015-09-27T03:04:53Z</time>
            </trkpt>
            <trkpt lon="100.938338" lat="14.519906">
                <ele>30.420000</ele>
                <time>2015-09-27T03:05:01Z</time>
            </trkpt>
            <trkpt lon="100.938347" lat="14.519902">
                <ele>30.420000</ele>
                <time>2015-09-27T03:05:19Z</time>
            </trkpt>
            <trkpt lon="100.938349" lat="14.519872">
                <ele>30.900000</ele>
                <time>2015-09-27T03:05:35Z</time>
            </trkpt>
            <trkpt lon="100.938350" lat="14.519862">
                <ele>30.420000</ele>
                <time>2015-09-27T03:05:56Z</time>
            </trkpt>
            <trkpt lon="100.938345" lat="14.519865">
                <ele>31.380000</ele>
                <time>2015-09-27T03:06:21Z</time>
            </trkpt>
            <trkpt lon="100.938333" lat="14.519862">
                <ele>33.780000</ele>
                <time>2015-09-27T03:06:43Z</time>
            </trkpt>
            <trkpt lon="100.938335" lat="14.519870">
                <ele>35.230000</ele>
                <time>2015-09-27T03:07:10Z</time>
            </trkpt>
            <trkpt lon="100.938327" lat="14.519874">
                <ele>34.740000</ele>
                <time>2015-09-27T03:07:16Z</time>
            </trkpt>
            <trkpt lon="100.938206" lat="14.519915">
                <ele>31.860000</ele>
                <time>2015-09-27T03:07:25Z</time>
            </trkpt>
            <trkpt lon="100.938148" lat="14.519928">
                <ele>30.900000</ele>
                <time>2015-09-27T03:07:41Z</time>
            </trkpt>
            <trkpt lon="100.938137" lat="14.519951">
                <ele>30.900000</ele>
                <time>2015-09-27T03:07:46Z</time>
            </trkpt>
            <trkpt lon="100.938010" lat="14.520388">
                <ele>27.530000</ele>
                <time>2015-09-27T03:07:57Z</time>
            </trkpt>
            <trkpt lon="100.937981" lat="14.520502">
                <ele>27.050000</ele>
                <time>2015-09-27T03:08:00Z</time>
            </trkpt>
            <trkpt lon="100.937819" lat="14.520667">
                <ele>24.170000</ele>
                <time>2015-09-27T03:08:09Z</time>
            </trkpt>
            <trkpt lon="100.937807" lat="14.520688">
                <ele>24.170000</ele>
                <time>2015-09-27T03:08:10Z</time>
            </trkpt>
            <trkpt lon="100.937760" lat="14.520788">
                <ele>23.690000</ele>
                <time>2015-09-27T03:08:15Z</time>
            </trkpt>
            <trkpt lon="100.937768" lat="14.520806">
                <ele>23.690000</ele>
                <time>2015-09-27T03:08:16Z</time>
            </trkpt>
            <trkpt lon="100.937884" lat="14.520896">
                <ele>23.210000</ele>
                <time>2015-09-27T03:08:22Z</time>
            </trkpt>
            <trkpt lon="100.937897" lat="14.520922">
                <ele>23.210000</ele>
                <time>2015-09-27T03:08:23Z</time>
            </trkpt>
            <trkpt lon="100.937902" lat="14.520957">
                <ele>23.690000</ele>
                <time>2015-09-27T03:08:24Z</time>
            </trkpt>
            <trkpt lon="100.937928" lat="14.521387">
                <ele>24.170000</ele>
                <time>2015-09-27T03:08:38Z</time>
            </trkpt>
            <trkpt lon="100.937951" lat="14.521870">
                <ele>26.570000</ele>
                <time>2015-09-27T03:08:54Z</time>
            </trkpt>
            <trkpt lon="100.937942" lat="14.521917">
                <ele>27.050000</ele>
                <time>2015-09-27T03:08:56Z</time>
            </trkpt>
            <trkpt lon="100.937924" lat="14.521937">
                <ele>27.050000</ele>
                <time>2015-09-27T03:08:57Z</time>
            </trkpt>
            <trkpt lon="100.937901" lat="14.521949">
                <ele>27.050000</ele>
                <time>2015-09-27T03:08:58Z</time>
            </trkpt>
            <trkpt lon="100.937875" lat="14.521956">
                <ele>27.050000</ele>
                <time>2015-09-27T03:08:59Z</time>
            </trkpt>
            <trkpt lon="100.937843" lat="14.521961">
                <ele>27.050000</ele>
                <time>2015-09-27T03:09:00Z</time>
            </trkpt>
            <trkpt lon="100.937810" lat="14.521968">
                <ele>27.050000</ele>
                <time>2015-09-27T03:09:01Z</time>
            </trkpt>
            <trkpt lon="100.937775" lat="14.521975">
                <ele>27.050000</ele>
                <time>2015-09-27T03:09:02Z</time>
            </trkpt>
            <trkpt lon="100.937740" lat="14.521982">
                <ele>26.570000</ele>
                <time>2015-09-27T03:09:03Z</time>
            </trkpt>
            <trkpt lon="100.937142" lat="14.522137">
                <ele>24.650000</ele>
                <time>2015-09-27T03:09:17Z</time>
            </trkpt>
            <trkpt lon="100.936359" lat="14.522431">
                <ele>21.770000</ele>
                <time>2015-09-27T03:09:33Z</time>
            </trkpt>
            <trkpt lon="100.936200" lat="14.522498">
                <ele>20.810000</ele>
                <time>2015-09-27T03:09:42Z</time>
            </trkpt>
            <trkpt lon="100.936198" lat="14.522513">
                <ele>21.290000</ele>
                <time>2015-09-27T03:10:10Z</time>
            </trkpt>
            <trkpt lon="100.936207" lat="14.522530">
                <ele>20.320000</ele>
                <time>2015-09-27T03:10:40Z</time>
            </trkpt>
            <trkpt lon="100.936195" lat="14.522539">
                <ele>20.810000</ele>
                <time>2015-09-27T03:10:46Z</time>
            </trkpt>
            <trkpt lon="100.936187" lat="14.522551">
                <ele>20.810000</ele>
                <time>2015-09-27T03:10:47Z</time>
            </trkpt>
            <trkpt lon="100.936189" lat="14.522565">
                <ele>20.810000</ele>
                <time>2015-09-27T03:10:48Z</time>
            </trkpt>
            <trkpt lon="100.936199" lat="14.522572">
                <ele>20.810000</ele>
                <time>2015-09-27T03:10:49Z</time>
            </trkpt>
            <trkpt lon="100.936210" lat="14.522569">
                <ele>20.810000</ele>
                <time>2015-09-27T03:10:50Z</time>
            </trkpt>
            <trkpt lon="100.936227" lat="14.522553">
                <ele>20.810000</ele>
                <time>2015-09-27T03:10:52Z</time>
            </trkpt>
            <trkpt lon="100.936324" lat="14.522482">
                <ele>20.810000</ele>
                <time>2015-09-27T03:10:59Z</time>
            </trkpt>
            <trkpt lon="100.936461" lat="14.522428">
                <ele>22.730000</ele>
                <time>2015-09-27T03:11:06Z</time>
            </trkpt>
            <trkpt lon="100.936480" lat="14.522427">
                <ele>22.730000</ele>
                <time>2015-09-27T03:11:07Z</time>
            </trkpt>
            <trkpt lon="100.936498" lat="14.522428">
                <ele>23.690000</ele>
                <time>2015-09-27T03:11:08Z</time>
            </trkpt>
            <trkpt lon="100.936526" lat="14.522419">
                <ele>25.130000</ele>
                <time>2015-09-27T03:11:24Z</time>
            </trkpt>
            <trkpt lon="100.936508" lat="14.522414">
                <ele>26.090000</ele>
                <time>2015-09-27T03:11:44Z</time>
            </trkpt>
            <trkpt lon="100.936302" lat="14.522506">
                <ele>25.610000</ele>
                <time>2015-09-27T03:11:56Z</time>
            </trkpt>
            <trkpt lon="100.936278" lat="14.522526">
                <ele>25.130000</ele>
                <time>2015-09-27T03:11:59Z</time>
            </trkpt>
            <trkpt lon="100.936296" lat="14.522585">
                <ele>25.130000</ele>
                <time>2015-09-27T03:12:04Z</time>
            </trkpt>
            <trkpt lon="100.936512" lat="14.522771">
                <ele>29.460000</ele>
                <time>2015-09-27T03:12:18Z</time>
            </trkpt>
            <trkpt lon="100.936769" lat="14.523008">
                <ele>31.380000</ele>
                <time>2015-09-27T03:12:33Z</time>
            </trkpt>
            <trkpt lon="100.936983" lat="14.523234">
                <ele>31.860000</ele>
                <time>2015-09-27T03:12:47Z</time>
            </trkpt>
            <trkpt lon="100.937137" lat="14.523366">
                <ele>33.300000</ele>
                <time>2015-09-27T03:12:58Z</time>
            </trkpt>
            <trkpt lon="100.937320" lat="14.523239">
                <ele>33.300000</ele>
                <time>2015-09-27T03:13:11Z</time>
            </trkpt>
            <trkpt lon="100.937421" lat="14.523170">
                <ele>33.300000</ele>
                <time>2015-09-27T03:13:17Z</time>
            </trkpt>
            <trkpt lon="100.937501" lat="14.523199">
                <ele>33.300000</ele>
                <time>2015-09-27T03:13:23Z</time>
            </trkpt>
            <trkpt lon="100.937625" lat="14.523450">
                <ele>38.110000</ele>
                <time>2015-09-27T03:13:40Z</time>
            </trkpt>
            <trkpt lon="100.937651" lat="14.523497">
                <ele>38.590000</ele>
                <time>2015-09-27T03:13:46Z</time>
            </trkpt>
            <trkpt lon="100.937826" lat="14.523490">
                <ele>40.510000</ele>
                <time>2015-09-27T03:14:01Z</time>
            </trkpt>
            <trkpt lon="100.938073" lat="14.523449">
                <ele>41.950000</ele>
                <time>2015-09-27T03:14:19Z</time>
            </trkpt>
            <trkpt lon="100.938107" lat="14.523454">
                <ele>43.880000</ele>
                <time>2015-09-27T03:14:31Z</time>
            </trkpt>
            <trkpt lon="100.938126" lat="14.523469">
                <ele>43.880000</ele>
                <time>2015-09-27T03:14:46Z</time>
            </trkpt>
            <trkpt lon="100.938097" lat="14.523482">
                <ele>44.840000</ele>
                <time>2015-09-27T03:15:05Z</time>
            </trkpt>
            <trkpt lon="100.938094" lat="14.523493">
                <ele>44.840000</ele>
                <time>2015-09-27T03:15:25Z</time>
            </trkpt>
            <trkpt lon="100.938098" lat="14.523487">
                <ele>44.840000</ele>
                <time>2015-09-27T03:15:37Z</time>
            </trkpt>
            <trkpt lon="100.937994" lat="14.523577">
                <ele>47.240000</ele>
                <time>2015-09-27T03:15:52Z</time>
            </trkpt>
            <trkpt lon="100.937911" lat="14.523589">
                <ele>45.800000</ele>
                <time>2015-09-27T03:16:04Z</time>
            </trkpt>
            <trkpt lon="100.937796" lat="14.523635">
                <ele>46.760000</ele>
                <time>2015-09-27T03:16:19Z</time>
            </trkpt>
            <trkpt lon="100.937653" lat="14.523788">
                <ele>49.160000</ele>
                <time>2015-09-27T03:16:33Z</time>
            </trkpt>
            <trkpt lon="100.937595" lat="14.523833">
                <ele>50.610000</ele>
                <time>2015-09-27T03:16:39Z</time>
            </trkpt>
            <trkpt lon="100.937350" lat="14.523927">
                <ele>48.680000</ele>
                <time>2015-09-27T03:16:53Z</time>
            </trkpt>
            <trkpt lon="100.937111" lat="14.524061">
                <ele>46.280000</ele>
                <time>2015-09-27T03:17:03Z</time>
            </trkpt>
            <trkpt lon="100.937091" lat="14.524083">
                <ele>46.280000</ele>
                <time>2015-09-27T03:17:07Z</time>
            </trkpt>
            <trkpt lon="100.937051" lat="14.524119">
                <ele>45.320000</ele>
                <time>2015-09-27T03:17:11Z</time>
            </trkpt>
            <trkpt lon="100.937026" lat="14.524187">
                <ele>44.840000</ele>
                <time>2015-09-27T03:17:18Z</time>
            </trkpt>
            <trkpt lon="100.936954" lat="14.524269">
                <ele>44.840000</ele>
                <time>2015-09-27T03:17:34Z</time>
            </trkpt>
            <trkpt lon="100.936876" lat="14.524431">
                <ele>43.880000</ele>
                <time>2015-09-27T03:17:50Z</time>
            </trkpt>
            <trkpt lon="100.936863" lat="14.524520">
                <ele>44.360000</ele>
                <time>2015-09-27T03:17:58Z</time>
            </trkpt>
            <trkpt lon="100.936815" lat="14.524596">
                <ele>44.360000</ele>
                <time>2015-09-27T03:18:14Z</time>
            </trkpt>
            <trkpt lon="100.936793" lat="14.524683">
                <ele>43.880000</ele>
                <time>2015-09-27T03:18:28Z</time>
            </trkpt>
            <trkpt lon="100.936781" lat="14.524740">
                <ele>43.880000</ele>
                <time>2015-09-27T03:18:40Z</time>
            </trkpt>
            <trkpt lon="100.936760" lat="14.524812">
                <ele>44.360000</ele>
                <time>2015-09-27T03:18:55Z</time>
            </trkpt>
            <trkpt lon="100.936722" lat="14.524912">
                <ele>44.360000</ele>
                <time>2015-09-27T03:19:08Z</time>
            </trkpt>
            <trkpt lon="100.936715" lat="14.524964">
                <ele>44.840000</ele>
                <time>2015-09-27T03:19:14Z</time>
            </trkpt>
            <trkpt lon="100.936719" lat="14.524995">
                <ele>45.320000</ele>
                <time>2015-09-27T03:19:31Z</time>
            </trkpt>
            <trkpt lon="100.936717" lat="14.525070">
                <ele>45.800000</ele>
                <time>2015-09-27T03:19:49Z</time>
            </trkpt>
            <trkpt lon="100.936703" lat="14.525112">
                <ele>45.800000</ele>
                <time>2015-09-27T03:20:02Z</time>
            </trkpt>
            <trkpt lon="100.936701" lat="14.525185">
                <ele>45.800000</ele>
                <time>2015-09-27T03:20:17Z</time>
            </trkpt>
            <trkpt lon="100.936721" lat="14.525239">
                <ele>44.360000</ele>
                <time>2015-09-27T03:20:27Z</time>
            </trkpt>
            <trkpt lon="100.936814" lat="14.525233">
                <ele>44.360000</ele>
                <time>2015-09-27T03:20:46Z</time>
            </trkpt>
            <trkpt lon="100.936838" lat="14.525281">
                <ele>43.880000</ele>
                <time>2015-09-27T03:20:58Z</time>
            </trkpt>
            <trkpt lon="100.936871" lat="14.525325">
                <ele>42.920000</ele>
                <time>2015-09-27T03:21:06Z</time>
            </trkpt>
            <trkpt lon="100.936968" lat="14.525398">
                <ele>43.400000</ele>
                <time>2015-09-27T03:21:19Z</time>
            </trkpt>
            <trkpt lon="100.937056" lat="14.525522">
                <ele>42.440000</ele>
                <time>2015-09-27T03:21:34Z</time>
            </trkpt>
            <trkpt lon="100.937075" lat="14.525555">
                <ele>40.990000</ele>
                <time>2015-09-27T03:21:51Z</time>
            </trkpt>
            <trkpt lon="100.937117" lat="14.525566">
                <ele>41.470000</ele>
                <time>2015-09-27T03:22:07Z</time>
            </trkpt>
            <trkpt lon="100.937218" lat="14.525623">
                <ele>39.070000</ele>
                <time>2015-09-27T03:22:24Z</time>
            </trkpt>
            <trkpt lon="100.937292" lat="14.525769">
                <ele>39.070000</ele>
                <time>2015-09-27T03:22:35Z</time>
            </trkpt>
            <trkpt lon="100.937302" lat="14.525797">
                <ele>39.550000</ele>
                <time>2015-09-27T03:22:37Z</time>
            </trkpt>
            <trkpt lon="100.937343" lat="14.525934">
                <ele>39.550000</ele>
                <time>2015-09-27T03:22:50Z</time>
            </trkpt>
            <trkpt lon="100.937386" lat="14.526070">
                <ele>41.950000</ele>
                <time>2015-09-27T03:23:06Z</time>
            </trkpt>
            <trkpt lon="100.937381" lat="14.526225">
                <ele>43.400000</ele>
                <time>2015-09-27T03:23:23Z</time>
            </trkpt>
            <trkpt lon="100.937393" lat="14.526387">
                <ele>42.920000</ele>
                <time>2015-09-27T03:23:38Z</time>
            </trkpt>
            <trkpt lon="100.937437" lat="14.526525">
                <ele>44.360000</ele>
                <time>2015-09-27T03:23:54Z</time>
            </trkpt>
            <trkpt lon="100.937477" lat="14.526598">
                <ele>46.760000</ele>
                <time>2015-09-27T03:24:07Z</time>
            </trkpt>
            <trkpt lon="100.937485" lat="14.526588">
                <ele>45.800000</ele>
                <time>2015-09-27T03:24:29Z</time>
            </trkpt>
            <trkpt lon="100.937504" lat="14.526651">
                <ele>46.280000</ele>
                <time>2015-09-27T03:24:47Z</time>
            </trkpt>
            <trkpt lon="100.937695" lat="14.526830">
                <ele>45.800000</ele>
                <time>2015-09-27T03:25:01Z</time>
            </trkpt>
            <trkpt lon="100.937910" lat="14.527056">
                <ele>44.840000</ele>
                <time>2015-09-27T03:25:15Z</time>
            </trkpt>
            <trkpt lon="100.938165" lat="14.527288">
                <ele>43.880000</ele>
                <time>2015-09-27T03:25:27Z</time>
            </trkpt>
            <trkpt lon="100.938445" lat="14.527398">
                <ele>42.440000</ele>
                <time>2015-09-27T03:25:39Z</time>
            </trkpt>
            <trkpt lon="100.938514" lat="14.527436">
                <ele>41.470000</ele>
                <time>2015-09-27T03:25:51Z</time>
            </trkpt>
            <trkpt lon="100.938513" lat="14.527436">
                <ele>42.920000</ele>
                <time>2015-09-27T03:26:10Z</time>
            </trkpt>
            <trkpt lon="100.938546" lat="14.527453">
                <ele>43.880000</ele>
                <time>2015-09-27T03:26:28Z</time>
            </trkpt>
            <trkpt lon="100.938672" lat="14.527495">
                <ele>43.400000</ele>
                <time>2015-09-27T03:26:41Z</time>
            </trkpt>
            <trkpt lon="100.938742" lat="14.527528">
                <ele>42.920000</ele>
                <time>2015-09-27T03:26:56Z</time>
            </trkpt>
            <trkpt lon="100.938920" lat="14.527544">
                <ele>45.320000</ele>
                <time>2015-09-27T03:27:09Z</time>
            </trkpt>
            <trkpt lon="100.939110" lat="14.527552">
                <ele>50.130000</ele>
                <time>2015-09-27T03:27:21Z</time>
            </trkpt>
            <trkpt lon="100.939217" lat="14.527569">
                <ele>54.930000</ele>
                <time>2015-09-27T03:27:32Z</time>
            </trkpt>
            <trkpt lon="100.939348" lat="14.527565">
                <ele>60.220000</ele>
                <time>2015-09-27T03:27:46Z</time>
            </trkpt>
            <trkpt lon="100.939451" lat="14.527563">
                <ele>65.030000</ele>
                <time>2015-09-27T03:27:58Z</time>
            </trkpt>
            <trkpt lon="100.939514" lat="14.527559">
                <ele>66.950000</ele>
                <time>2015-09-27T03:28:02Z</time>
            </trkpt>
            <trkpt lon="100.939572" lat="14.527541">
                <ele>68.390000</ele>
                <time>2015-09-27T03:28:06Z</time>
            </trkpt>
            <trkpt lon="100.939823" lat="14.527430">
                <ele>67.430000</ele>
                <time>2015-09-27T03:28:20Z</time>
            </trkpt>
            <trkpt lon="100.939928" lat="14.527321">
                <ele>58.300000</ele>
                <time>2015-09-27T03:28:32Z</time>
            </trkpt>
            <trkpt lon="100.939956" lat="14.527321">
                <ele>50.610000</ele>
                <time>2015-09-27T03:28:57Z</time>
            </trkpt>
            <trkpt lon="100.939966" lat="14.527314">
                <ele>49.160000</ele>
                <time>2015-09-27T03:29:26Z</time>
            </trkpt>
            <trkpt lon="100.939994" lat="14.527320">
                <ele>49.160000</ele>
                <time>2015-09-27T03:29:54Z</time>
            </trkpt>
            <trkpt lon="100.939994" lat="14.527323">
                <ele>45.800000</ele>
                <time>2015-09-27T03:30:28Z</time>
            </trkpt>
            <trkpt lon="100.939994" lat="14.527308">
                <ele>44.840000</ele>
                <time>2015-09-27T03:30:49Z</time>
            </trkpt>
            <trkpt lon="100.939989" lat="14.527311">
                <ele>42.920000</ele>
                <time>2015-09-27T03:31:16Z</time>
            </trkpt>
            <trkpt lon="100.939983" lat="14.527309">
                <ele>41.950000</ele>
                <time>2015-09-27T03:31:36Z</time>
            </trkpt>
            <trkpt lon="100.940005" lat="14.527334">
                <ele>43.880000</ele>
                <time>2015-09-27T03:31:58Z</time>
            </trkpt>
            <trkpt lon="100.940003" lat="14.527310">
                <ele>43.880000</ele>
                <time>2015-09-27T03:32:09Z</time>
            </trkpt>
            <trkpt lon="100.939986" lat="14.527313">
                <ele>39.550000</ele>
                <time>2015-09-27T03:32:42Z</time>
            </trkpt>
            <trkpt lon="100.939999" lat="14.527309">
                <ele>40.990000</ele>
                <time>2015-09-27T03:33:14Z</time>
            </trkpt>
            <trkpt lon="100.939996" lat="14.527315">
                <ele>40.990000</ele>
                <time>2015-09-27T03:33:52Z</time>
            </trkpt>
            <trkpt lon="100.939896" lat="14.527383">
                <ele>40.990000</ele>
                <time>2015-09-27T03:34:09Z</time>
            </trkpt>
            <trkpt lon="100.939866" lat="14.527400">
                <ele>41.470000</ele>
                <time>2015-09-27T03:34:23Z</time>
            </trkpt>
            <trkpt lon="100.939842" lat="14.527409">
                <ele>44.360000</ele>
                <time>2015-09-27T03:34:51Z</time>
            </trkpt>
            <trkpt lon="100.939782" lat="14.527432">
                <ele>44.840000</ele>
                <time>2015-09-27T03:35:03Z</time>
            </trkpt>
            <trkpt lon="100.939773" lat="14.527445">
                <ele>44.840000</ele>
                <time>2015-09-27T03:35:24Z</time>
            </trkpt>
            <trkpt lon="100.939772" lat="14.527453">
                <ele>42.440000</ele>
                <time>2015-09-27T03:35:49Z</time>
            </trkpt>
            <trkpt lon="100.939771" lat="14.527465">
                <ele>45.800000</ele>
                <time>2015-09-27T03:36:16Z</time>
            </trkpt>
            <trkpt lon="100.939796" lat="14.527466">
                <ele>45.800000</ele>
                <time>2015-09-27T03:36:37Z</time>
            </trkpt>
            <trkpt lon="100.939801" lat="14.527471">
                <ele>46.280000</ele>
                <time>2015-09-27T03:36:55Z</time>
            </trkpt>
            <trkpt lon="100.939735" lat="14.527494">
                <ele>48.680000</ele>
                <time>2015-09-27T03:37:15Z</time>
            </trkpt>
            <trkpt lon="100.939640" lat="14.527512">
                <ele>50.610000</ele>
                <time>2015-09-27T03:37:32Z</time>
            </trkpt>
            <trkpt lon="100.939640" lat="14.527513">
                <ele>50.610000</ele>
                <time>2015-09-27T03:37:51Z</time>
            </trkpt>
            <trkpt lon="100.939699" lat="14.527486">
                <ele>51.090000</ele>
                <time>2015-09-27T03:38:07Z</time>
            </trkpt>
            <trkpt lon="100.939760" lat="14.527479">
                <ele>51.570000</ele>
                <time>2015-09-27T03:38:22Z</time>
            </trkpt>
            <trkpt lon="100.939959" lat="14.527340">
                <ele>51.090000</ele>
                <time>2015-09-27T03:38:37Z</time>
            </trkpt>
            <trkpt lon="100.940037" lat="14.527300">
                <ele>50.610000</ele>
                <time>2015-09-27T03:38:41Z</time>
            </trkpt>
            <trkpt lon="100.940084" lat="14.527265">
                <ele>50.610000</ele>
                <time>2015-09-27T03:38:45Z</time>
            </trkpt>
            <trkpt lon="100.940195" lat="14.527225">
                <ele>49.160000</ele>
                <time>2015-09-27T03:38:58Z</time>
            </trkpt>
            <trkpt lon="100.940222" lat="14.527207">
                <ele>48.200000</ele>
                <time>2015-09-27T03:39:01Z</time>
            </trkpt>
            <trkpt lon="100.940304" lat="14.527156">
                <ele>47.720000</ele>
                <time>2015-09-27T03:39:14Z</time>
            </trkpt>
            <trkpt lon="100.940390" lat="14.527104">
                <ele>45.800000</ele>
                <time>2015-09-27T03:39:27Z</time>
            </trkpt>
            <trkpt lon="100.940446" lat="14.527015">
                <ele>43.880000</ele>
                <time>2015-09-27T03:39:38Z</time>
            </trkpt>
            <trkpt lon="100.940446" lat="14.527008">
                <ele>43.880000</ele>
                <time>2015-09-27T03:39:39Z</time>
            </trkpt>
            <trkpt lon="100.940442" lat="14.526897">
                <ele>43.400000</ele>
                <time>2015-09-27T03:39:52Z</time>
            </trkpt>
            <trkpt lon="100.940438" lat="14.526585">
                <ele>40.990000</ele>
                <time>2015-09-27T03:40:04Z</time>
            </trkpt>
            <trkpt lon="100.940460" lat="14.526365">
                <ele>40.990000</ele>
                <time>2015-09-27T03:40:14Z</time>
            </trkpt>
            <trkpt lon="100.940585" lat="14.526000">
                <ele>40.510000</ele>
                <time>2015-09-27T03:40:27Z</time>
            </trkpt>
            <trkpt lon="100.940678" lat="14.525643">
                <ele>40.990000</ele>
                <time>2015-09-27T03:40:38Z</time>
            </trkpt>
            <trkpt lon="100.940843" lat="14.525323">
                <ele>40.030000</ele>
                <time>2015-09-27T03:40:50Z</time>
            </trkpt>
            <trkpt lon="100.941077" lat="14.525147">
                <ele>40.510000</ele>
                <time>2015-09-27T03:41:03Z</time>
            </trkpt>
            <trkpt lon="100.941152" lat="14.525111">
                <ele>40.030000</ele>
                <time>2015-09-27T03:41:14Z</time>
            </trkpt>
            <trkpt lon="100.941155" lat="14.525106">
                <ele>40.030000</ele>
                <time>2015-09-27T03:41:15Z</time>
            </trkpt>
            <trkpt lon="100.941178" lat="14.525014">
                <ele>40.510000</ele>
                <time>2015-09-27T03:41:22Z</time>
            </trkpt>
            <trkpt lon="100.941171" lat="14.524944">
                <ele>40.510000</ele>
                <time>2015-09-27T03:41:28Z</time>
            </trkpt>
            <trkpt lon="100.941155" lat="14.524918">
                <ele>40.510000</ele>
                <time>2015-09-27T03:41:35Z</time>
            </trkpt>
            <trkpt lon="100.941126" lat="14.524815">
                <ele>41.470000</ele>
                <time>2015-09-27T03:41:52Z</time>
            </trkpt>
            <trkpt lon="100.941089" lat="14.524703">
                <ele>41.950000</ele>
                <time>2015-09-27T03:42:03Z</time>
            </trkpt>
            <trkpt lon="100.941100" lat="14.524677">
                <ele>42.440000</ele>
                <time>2015-09-27T03:42:07Z</time>
            </trkpt>
            <trkpt lon="100.941111" lat="14.524630">
                <ele>42.440000</ele>
                <time>2015-09-27T03:42:12Z</time>
            </trkpt>
            <trkpt lon="100.941100" lat="14.524599">
                <ele>42.440000</ele>
                <time>2015-09-27T03:42:15Z</time>
            </trkpt>
            <trkpt lon="100.941123" lat="14.524553">
                <ele>42.440000</ele>
                <time>2015-09-27T03:42:19Z</time>
            </trkpt>
            <trkpt lon="100.941167" lat="14.524498">
                <ele>42.440000</ele>
                <time>2015-09-27T03:42:24Z</time>
            </trkpt>
            <trkpt lon="100.941356" lat="14.524468">
                <ele>42.440000</ele>
                <time>2015-09-27T03:42:40Z</time>
            </trkpt>
            <trkpt lon="100.941484" lat="14.524371">
                <ele>40.990000</ele>
                <time>2015-09-27T03:42:55Z</time>
            </trkpt>
            <trkpt lon="100.941531" lat="14.524352">
                <ele>41.470000</ele>
                <time>2015-09-27T03:43:09Z</time>
            </trkpt>
            <trkpt lon="100.941638" lat="14.524305">
                <ele>40.990000</ele>
                <time>2015-09-27T03:43:18Z</time>
            </trkpt>
            <trkpt lon="100.941702" lat="14.524309">
                <ele>40.510000</ele>
                <time>2015-09-27T03:43:23Z</time>
            </trkpt>
            <trkpt lon="100.941758" lat="14.524352">
                <ele>40.030000</ele>
                <time>2015-09-27T03:43:35Z</time>
            </trkpt>
            <trkpt lon="100.941820" lat="14.524378">
                <ele>41.950000</ele>
                <time>2015-09-27T03:43:48Z</time>
            </trkpt>
            <trkpt lon="100.941891" lat="14.524426">
                <ele>42.440000</ele>
                <time>2015-09-27T03:44:01Z</time>
            </trkpt>
            <trkpt lon="100.941955" lat="14.524455">
                <ele>42.440000</ele>
                <time>2015-09-27T03:44:13Z</time>
            </trkpt>
            <trkpt lon="100.942027" lat="14.524477">
                <ele>40.030000</ele>
                <time>2015-09-27T03:44:29Z</time>
            </trkpt>
            <trkpt lon="100.942130" lat="14.524487">
                <ele>34.260000</ele>
                <time>2015-09-27T03:44:45Z</time>
            </trkpt>
            <trkpt lon="100.942167" lat="14.524534">
                <ele>30.420000</ele>
                <time>2015-09-27T03:44:59Z</time>
            </trkpt>
            <trkpt lon="100.942168" lat="14.524549">
                <ele>28.500000</ele>
                <time>2015-09-27T03:45:14Z</time>
            </trkpt>
            <trkpt lon="100.942151" lat="14.524587">
                <ele>27.530000</ele>
                <time>2015-09-27T03:45:19Z</time>
            </trkpt>
            <trkpt lon="100.942131" lat="14.524638">
                <ele>27.530000</ele>
                <time>2015-09-27T03:45:25Z</time>
            </trkpt>
            <trkpt lon="100.942140" lat="14.524731">
                <ele>28.500000</ele>
                <time>2015-09-27T03:45:40Z</time>
            </trkpt>
            <trkpt lon="100.942140" lat="14.524792">
                <ele>28.020000</ele>
                <time>2015-09-27T03:45:50Z</time>
            </trkpt>
            <trkpt lon="100.942116" lat="14.524841">
                <ele>28.980000</ele>
                <time>2015-09-27T03:45:55Z</time>
            </trkpt>
            <trkpt lon="100.942086" lat="14.524881">
                <ele>29.460000</ele>
                <time>2015-09-27T03:45:59Z</time>
            </trkpt>
            <trkpt lon="100.942036" lat="14.525022">
                <ele>31.380000</ele>
                <time>2015-09-27T03:46:14Z</time>
            </trkpt>
            <trkpt lon="100.941985" lat="14.525123">
                <ele>31.860000</ele>
                <time>2015-09-27T03:46:21Z</time>
            </trkpt>
            <trkpt lon="100.941983" lat="14.525186">
                <ele>31.380000</ele>
                <time>2015-09-27T03:46:25Z</time>
            </trkpt>
            <trkpt lon="100.941970" lat="14.525310">
                <ele>30.900000</ele>
                <time>2015-09-27T03:46:38Z</time>
            </trkpt>
            <trkpt lon="100.941944" lat="14.525414">
                <ele>29.940000</ele>
                <time>2015-09-27T03:46:51Z</time>
            </trkpt>
            <trkpt lon="100.941926" lat="14.525449">
                <ele>29.940000</ele>
                <time>2015-09-27T03:46:53Z</time>
            </trkpt>
            <trkpt lon="100.941880" lat="14.525564">
                <ele>29.940000</ele>
                <time>2015-09-27T03:47:06Z</time>
            </trkpt>
            <trkpt lon="100.941824" lat="14.525728">
                <ele>28.980000</ele>
                <time>2015-09-27T03:47:17Z</time>
            </trkpt>
            <trkpt lon="100.941840" lat="14.525766">
                <ele>28.980000</ele>
                <time>2015-09-27T03:47:20Z</time>
            </trkpt>
            <trkpt lon="100.941852" lat="14.525813">
                <ele>28.980000</ele>
                <time>2015-09-27T03:47:31Z</time>
            </trkpt>
            <trkpt lon="100.941832" lat="14.525890">
                <ele>29.460000</ele>
                <time>2015-09-27T03:47:46Z</time>
            </trkpt>
            <trkpt lon="100.941782" lat="14.526006">
                <ele>30.420000</ele>
                <time>2015-09-27T03:48:01Z</time>
            </trkpt>
            <trkpt lon="100.941771" lat="14.526038">
                <ele>30.900000</ele>
                <time>2015-09-27T03:48:07Z</time>
            </trkpt>
            <trkpt lon="100.941779" lat="14.526113">
                <ele>32.340000</ele>
                <time>2015-09-27T03:48:14Z</time>
            </trkpt>
            <trkpt lon="100.941790" lat="14.526163">
                <ele>33.300000</ele>
                <time>2015-09-27T03:48:18Z</time>
            </trkpt>
            <trkpt lon="100.941805" lat="14.526482">
                <ele>30.420000</ele>
                <time>2015-09-27T03:48:34Z</time>
            </trkpt>
            <trkpt lon="100.941782" lat="14.526644">
                <ele>27.530000</ele>
                <time>2015-09-27T03:48:46Z</time>
            </trkpt>
            <trkpt lon="100.941660" lat="14.526938">
                <ele>25.610000</ele>
                <time>2015-09-27T03:48:59Z</time>
            </trkpt>
            <trkpt lon="100.941469" lat="14.527197">
                <ele>25.610000</ele>
                <time>2015-09-27T03:49:10Z</time>
            </trkpt>
            <trkpt lon="100.941155" lat="14.527459">
                <ele>26.570000</ele>
                <time>2015-09-27T03:49:23Z</time>
            </trkpt>
            <trkpt lon="100.941008" lat="14.527581">
                <ele>27.050000</ele>
                <time>2015-09-27T03:49:29Z</time>
            </trkpt>
            <trkpt lon="100.940983" lat="14.527603">
                <ele>26.570000</ele>
                <time>2015-09-27T03:49:30Z</time>
            </trkpt>
            <trkpt lon="100.940955" lat="14.527620">
                <ele>26.570000</ele>
                <time>2015-09-27T03:49:31Z</time>
            </trkpt>
            <trkpt lon="100.940588" lat="14.527769">
                <ele>28.020000</ele>
                <time>2015-09-27T03:49:44Z</time>
            </trkpt>
            <trkpt lon="100.940223" lat="14.527846">
                <ele>28.980000</ele>
                <time>2015-09-27T03:49:59Z</time>
            </trkpt>
            <trkpt lon="100.939867" lat="14.527913">
                <ele>28.980000</ele>
                <time>2015-09-27T03:50:14Z</time>
            </trkpt>
            <trkpt lon="100.939600" lat="14.527903">
                <ele>29.460000</ele>
                <time>2015-09-27T03:50:26Z</time>
            </trkpt>
            <trkpt lon="100.939251" lat="14.528039">
                <ele>30.900000</ele>
                <time>2015-09-27T03:50:38Z</time>
            </trkpt>
            <trkpt lon="100.938933" lat="14.528144">
                <ele>29.940000</ele>
                <time>2015-09-27T03:50:47Z</time>
            </trkpt>
            <trkpt lon="100.938885" lat="14.528152">
                <ele>29.460000</ele>
                <time>2015-09-27T03:50:48Z</time>
            </trkpt>
            <trkpt lon="100.938835" lat="14.528159">
                <ele>28.980000</ele>
                <time>2015-09-27T03:50:49Z</time>
            </trkpt>
            <trkpt lon="100.938404" lat="14.528167">
                <ele>25.130000</ele>
                <time>2015-09-27T03:51:01Z</time>
            </trkpt>
            <trkpt lon="100.938335" lat="14.528205">
                <ele>24.170000</ele>
                <time>2015-09-27T03:51:05Z</time>
            </trkpt>
            <trkpt lon="100.938329" lat="14.528221">
                <ele>24.170000</ele>
                <time>2015-09-27T03:51:06Z</time>
            </trkpt>
            <trkpt lon="100.938343" lat="14.528294">
                <ele>23.690000</ele>
                <time>2015-09-27T03:51:17Z</time>
            </trkpt>
            <trkpt lon="100.938439" lat="14.528593">
                <ele>22.250000</ele>
                <time>2015-09-27T03:51:28Z</time>
            </trkpt>
            <trkpt lon="100.938731" lat="14.528683">
                <ele>21.290000</ele>
                <time>2015-09-27T03:51:40Z</time>
            </trkpt>
            <trkpt lon="100.939047" lat="14.528583">
                <ele>21.770000</ele>
                <time>2015-09-27T03:51:55Z</time>
            </trkpt>
            <trkpt lon="100.939176" lat="14.528515">
                <ele>21.770000</ele>
                <time>2015-09-27T03:52:04Z</time>
            </trkpt>
            <trkpt lon="100.939440" lat="14.528563">
                <ele>21.290000</ele>
                <time>2015-09-27T03:52:18Z</time>
            </trkpt>
            <trkpt lon="100.939704" lat="14.528492">
                <ele>21.290000</ele>
                <time>2015-09-27T03:52:30Z</time>
            </trkpt>
            <trkpt lon="100.939859" lat="14.528481">
                <ele>20.810000</ele>
                <time>2015-09-27T03:52:37Z</time>
            </trkpt>
            <trkpt lon="100.939975" lat="14.528514">
                <ele>20.320000</ele>
                <time>2015-09-27T03:52:42Z</time>
            </trkpt>
            <trkpt lon="100.940321" lat="14.528497">
                <ele>18.880000</ele>
                <time>2015-09-27T03:52:55Z</time>
            </trkpt>
            <trkpt lon="100.940693" lat="14.528414">
                <ele>18.400000</ele>
                <time>2015-09-27T03:53:08Z</time>
            </trkpt>
            <trkpt lon="100.941043" lat="14.528322">
                <ele>17.440000</ele>
                <time>2015-09-27T03:53:22Z</time>
            </trkpt>
            <trkpt lon="100.941082" lat="14.528338">
                <ele>16.960000</ele>
                <time>2015-09-27T03:53:34Z</time>
            </trkpt>
            <trkpt lon="100.941146" lat="14.528390">
                <ele>16.480000</ele>
                <time>2015-09-27T03:53:39Z</time>
            </trkpt>
            <trkpt lon="100.941191" lat="14.528388">
                <ele>16.480000</ele>
                <time>2015-09-27T03:53:42Z</time>
            </trkpt>
            <trkpt lon="100.941262" lat="14.528419">
                <ele>15.520000</ele>
                <time>2015-09-27T03:53:46Z</time>
            </trkpt>
            <trkpt lon="100.941298" lat="14.528456">
                <ele>15.520000</ele>
                <time>2015-09-27T03:53:49Z</time>
            </trkpt>
            <trkpt lon="100.941525" lat="14.528353">
                <ele>16.480000</ele>
                <time>2015-09-27T03:54:00Z</time>
            </trkpt>
            <trkpt lon="100.941674" lat="14.528362">
                <ele>16.480000</ele>
                <time>2015-09-27T03:54:11Z</time>
            </trkpt>
            <trkpt lon="100.941738" lat="14.528384">
                <ele>16.480000</ele>
                <time>2015-09-27T03:54:15Z</time>
            </trkpt>
            <trkpt lon="100.941873" lat="14.528476">
                <ele>16.960000</ele>
                <time>2015-09-27T03:54:22Z</time>
            </trkpt>
            <trkpt lon="100.941918" lat="14.528615">
                <ele>16.480000</ele>
                <time>2015-09-27T03:54:28Z</time>
            </trkpt>
            <trkpt lon="100.942048" lat="14.529193">
                <ele>15.040000</ele>
                <time>2015-09-27T03:54:46Z</time>
            </trkpt>
            <trkpt lon="100.941978" lat="14.529500">
                <ele>15.520000</ele>
                <time>2015-09-27T03:54:58Z</time>
            </trkpt>
            <trkpt lon="100.942398" lat="14.529737">
                <ele>16.480000</ele>
                <time>2015-09-27T03:55:13Z</time>
            </trkpt>
            <trkpt lon="100.942629" lat="14.530020">
                <ele>16.960000</ele>
                <time>2015-09-27T03:55:26Z</time>
            </trkpt>
            <trkpt lon="100.942602" lat="14.530521">
                <ele>16.480000</ele>
                <time>2015-09-27T03:55:40Z</time>
            </trkpt>
            <trkpt lon="100.942573" lat="14.530875">
                <ele>16.480000</ele>
                <time>2015-09-27T03:55:51Z</time>
            </trkpt>
            <trkpt lon="100.942901" lat="14.531166">
                <ele>16.480000</ele>
                <time>2015-09-27T03:56:04Z</time>
            </trkpt>
            <trkpt lon="100.943424" lat="14.531431">
                <ele>16.480000</ele>
                <time>2015-09-27T03:56:19Z</time>
            </trkpt>
            <trkpt lon="100.944086" lat="14.531688">
                <ele>16.480000</ele>
                <time>2015-09-27T03:56:37Z</time>
            </trkpt>
            <trkpt lon="100.944406" lat="14.531824">
                <ele>16.480000</ele>
                <time>2015-09-27T03:56:51Z</time>
            </trkpt>
            <trkpt lon="100.944705" lat="14.531632">
                <ele>16.480000</ele>
                <time>2015-09-27T03:57:04Z</time>
            </trkpt>
            <trkpt lon="100.945287" lat="14.531252">
                <ele>16.480000</ele>
                <time>2015-09-27T03:57:19Z</time>
            </trkpt>
            <trkpt lon="100.945421" lat="14.531120">
                <ele>16.960000</ele>
                <time>2015-09-27T03:57:24Z</time>
            </trkpt>
            <trkpt lon="100.945419" lat="14.531083">
                <ele>17.440000</ele>
                <time>2015-09-27T03:57:25Z</time>
            </trkpt>
            <trkpt lon="100.945413" lat="14.531052">
                <ele>17.440000</ele>
                <time>2015-09-27T03:57:26Z</time>
            </trkpt>
            <trkpt lon="100.945369" lat="14.530931">
                <ele>17.440000</ele>
                <time>2015-09-27T03:57:29Z</time>
            </trkpt>
            <trkpt lon="100.945351" lat="14.530891">
                <ele>16.960000</ele>
                <time>2015-09-27T03:57:30Z</time>
            </trkpt>
            <trkpt lon="100.945148" lat="14.530223">
                <ele>15.520000</ele>
                <time>2015-09-27T03:57:46Z</time>
            </trkpt>
            <trkpt lon="100.945075" lat="14.529489">
                <ele>16.000000</ele>
                <time>2015-09-27T03:58:02Z</time>
            </trkpt>
            <trkpt lon="100.945062" lat="14.529079">
                <ele>16.000000</ele>
                <time>2015-09-27T03:58:11Z</time>
            </trkpt>
            <trkpt lon="100.945071" lat="14.529034">
                <ele>16.000000</ele>
                <time>2015-09-27T03:58:12Z</time>
            </trkpt>
            <trkpt lon="100.945086" lat="14.528988">
                <ele>16.000000</ele>
                <time>2015-09-27T03:58:13Z</time>
            </trkpt>
            <trkpt lon="100.945206" lat="14.528619">
                <ele>16.000000</ele>
                <time>2015-09-27T03:58:21Z</time>
            </trkpt>
            <trkpt lon="100.945223" lat="14.527729">
                <ele>16.480000</ele>
                <time>2015-09-27T03:58:39Z</time>
            </trkpt>
            <trkpt lon="100.945217" lat="14.527681">
                <ele>16.480000</ele>
                <time>2015-09-27T03:58:40Z</time>
            </trkpt>
            <trkpt lon="100.945203" lat="14.527636">
                <ele>16.480000</ele>
                <time>2015-09-27T03:58:41Z</time>
            </trkpt>
            <trkpt lon="100.945182" lat="14.527596">
                <ele>16.480000</ele>
                <time>2015-09-27T03:58:42Z</time>
            </trkpt>
            <trkpt lon="100.945151" lat="14.527562">
                <ele>16.480000</ele>
                <time>2015-09-27T03:58:43Z</time>
            </trkpt>
            <trkpt lon="100.945111" lat="14.527535">
                <ele>16.480000</ele>
                <time>2015-09-27T03:58:44Z</time>
            </trkpt>
            <trkpt lon="100.945065" lat="14.527517">
                <ele>16.480000</ele>
                <time>2015-09-27T03:58:45Z</time>
            </trkpt>
            <trkpt lon="100.945017" lat="14.527503">
                <ele>16.480000</ele>
                <time>2015-09-27T03:58:46Z</time>
            </trkpt>
            <trkpt lon="100.944968" lat="14.527494">
                <ele>16.480000</ele>
                <time>2015-09-27T03:58:47Z</time>
            </trkpt>
            <trkpt lon="100.944917" lat="14.527494">
                <ele>16.480000</ele>
                <time>2015-09-27T03:58:48Z</time>
            </trkpt>
            <trkpt lon="100.944867" lat="14.527497">
                <ele>16.480000</ele>
                <time>2015-09-27T03:58:49Z</time>
            </trkpt>
            <trkpt lon="100.944819" lat="14.527506">
                <ele>16.480000</ele>
                <time>2015-09-27T03:58:50Z</time>
            </trkpt>
            <trkpt lon="100.944721" lat="14.527516">
                <ele>16.960000</ele>
                <time>2015-09-27T03:58:52Z</time>
            </trkpt>
            <trkpt lon="100.944673" lat="14.527503">
                <ele>16.480000</ele>
                <time>2015-09-27T03:58:53Z</time>
            </trkpt>
            <trkpt lon="100.944632" lat="14.527477">
                <ele>16.480000</ele>
                <time>2015-09-27T03:58:54Z</time>
            </trkpt>
            <trkpt lon="100.944596" lat="14.527441">
                <ele>16.960000</ele>
                <time>2015-09-27T03:58:55Z</time>
            </trkpt>
            <trkpt lon="100.944564" lat="14.527403">
                <ele>16.960000</ele>
                <time>2015-09-27T03:58:56Z</time>
            </trkpt>
            <trkpt lon="100.944536" lat="14.527364">
                <ele>16.960000</ele>
                <time>2015-09-27T03:58:57Z</time>
            </trkpt>
            <trkpt lon="100.944507" lat="14.527324">
                <ele>16.960000</ele>
                <time>2015-09-27T03:58:58Z</time>
            </trkpt>
            <trkpt lon="100.944041" lat="14.526676">
                <ele>16.960000</ele>
                <time>2015-09-27T03:59:15Z</time>
            </trkpt>
            <trkpt lon="100.943844" lat="14.526393">
                <ele>17.440000</ele>
                <time>2015-09-27T03:59:26Z</time>
            </trkpt>
            <trkpt lon="100.943872" lat="14.526362">
                <ele>17.440000</ele>
                <time>2015-09-27T03:59:33Z</time>
            </trkpt>
            <trkpt lon="100.943879" lat="14.526349">
                <ele>17.440000</ele>
                <time>2015-09-27T03:59:34Z</time>
            </trkpt>
            <trkpt lon="100.943888" lat="14.526335">
                <ele>17.440000</ele>
                <time>2015-09-27T03:59:35Z</time>
            </trkpt>
            <trkpt lon="100.943898" lat="14.526321">
                <ele>17.440000</ele>
                <time>2015-09-27T03:59:36Z</time>
            </trkpt>
            <trkpt lon="100.943956" lat="14.526296">
                <ele>17.440000</ele>
                <time>2015-09-27T03:59:46Z</time>
            </trkpt>
            <trkpt lon="100.943992" lat="14.526332">
                <ele>16.000000</ele>
                <time>2015-09-27T03:59:59Z</time>
            </trkpt>
            <trkpt lon="100.944012" lat="14.526365">
                <ele>16.000000</ele>
                <time>2015-09-27T04:00:12Z</time>
            </trkpt>
            <trkpt lon="100.944042" lat="14.526374">
                <ele>14.560000</ele>
                <time>2015-09-27T04:00:24Z</time>
            </trkpt>
            <trkpt lon="100.944093" lat="14.526422">
                <ele>15.040000</ele>
                <time>2015-09-27T04:00:39Z</time>
            </trkpt>
            <trkpt lon="100.944097" lat="14.526428">
                <ele>14.560000</ele>
                <time>2015-09-27T04:00:41Z</time>
            </trkpt>
            <trkpt lon="100.944263" lat="14.526593">
                <ele>15.040000</ele>
                <time>2015-09-27T04:00:56Z</time>
            </trkpt>
            <trkpt lon="100.944272" lat="14.526608">
                <ele>15.040000</ele>
                <time>2015-09-27T04:00:57Z</time>
            </trkpt>
            <trkpt lon="100.944556" lat="14.526632">
                <ele>14.080000</ele>
                <time>2015-09-27T04:01:09Z</time>
            </trkpt>
            <trkpt lon="100.944643" lat="14.526431">
                <ele>14.080000</ele>
                <time>2015-09-27T04:01:20Z</time>
            </trkpt>
            <trkpt lon="100.944653" lat="14.526398">
                <ele>13.600000</ele>
                <time>2015-09-27T04:01:22Z</time>
            </trkpt>
            <trkpt lon="100.944667" lat="14.526383">
                <ele>13.120000</ele>
                <time>2015-09-27T04:01:36Z</time>
            </trkpt>
            <trkpt lon="100.944651" lat="14.526366">
                <ele>14.080000</ele>
                <time>2015-09-27T04:01:41Z</time>
            </trkpt>
            <trkpt lon="100.944647" lat="14.526295">
                <ele>16.000000</ele>
                <time>2015-09-27T04:01:57Z</time>
            </trkpt>
            <trkpt lon="100.944642" lat="14.526318">
                <ele>16.960000</ele>
                <time>2015-09-27T04:02:11Z</time>
            </trkpt>
            <trkpt lon="100.944658" lat="14.526352">
                <ele>16.480000</ele>
                <time>2015-09-27T04:02:26Z</time>
            </trkpt>
            <trkpt lon="100.944654" lat="14.526364">
                <ele>15.520000</ele>
                <time>2015-09-27T04:02:48Z</time>
            </trkpt>
            <trkpt lon="100.944704" lat="14.526339">
                <ele>15.040000</ele>
                <time>2015-09-27T04:03:00Z</time>
            </trkpt>
            <trkpt lon="100.944779" lat="14.526311">
                <ele>15.040000</ele>
                <time>2015-09-27T04:03:16Z</time>
            </trkpt>
            <trkpt lon="100.944794" lat="14.526283">
                <ele>15.040000</ele>
                <time>2015-09-27T04:03:27Z</time>
            </trkpt>
            <trkpt lon="100.944718" lat="14.526220">
                <ele>15.520000</ele>
                <time>2015-09-27T04:03:40Z</time>
            </trkpt>
            <trkpt lon="100.944629" lat="14.526141">
                <ele>15.040000</ele>
                <time>2015-09-27T04:03:53Z</time>
            </trkpt>
            <trkpt lon="100.944561" lat="14.526067">
                <ele>15.520000</ele>
                <time>2015-09-27T04:04:02Z</time>
            </trkpt>
            <trkpt lon="100.944459" lat="14.525978">
                <ele>16.000000</ele>
                <time>2015-09-27T04:04:14Z</time>
            </trkpt>
            <trkpt lon="100.944237" lat="14.525799">
                <ele>17.920000</ele>
                <time>2015-09-27T04:04:30Z</time>
            </trkpt>
            <trkpt lon="100.943967" lat="14.525682">
                <ele>20.320000</ele>
                <time>2015-09-27T04:04:45Z</time>
            </trkpt>
            <trkpt lon="100.943876" lat="14.525524">
                <ele>22.730000</ele>
                <time>2015-09-27T04:04:55Z</time>
            </trkpt>
            <trkpt lon="100.943989" lat="14.525228">
                <ele>21.770000</ele>
                <time>2015-09-27T04:05:10Z</time>
            </trkpt>
            <trkpt lon="100.944114" lat="14.524721">
                <ele>22.250000</ele>
                <time>2015-09-27T04:05:26Z</time>
            </trkpt>
            <trkpt lon="100.943960" lat="14.524515">
                <ele>25.610000</ele>
                <time>2015-09-27T04:05:38Z</time>
            </trkpt>
            <trkpt lon="100.943816" lat="14.524412">
                <ele>26.570000</ele>
                <time>2015-09-27T04:05:48Z</time>
            </trkpt>
            <trkpt lon="100.943819" lat="14.524389">
                <ele>26.570000</ele>
                <time>2015-09-27T04:05:49Z</time>
            </trkpt>
            <trkpt lon="100.943986" lat="14.523911">
                <ele>25.610000</ele>
                <time>2015-09-27T04:06:05Z</time>
            </trkpt>
            <trkpt lon="100.944228" lat="14.523208">
                <ele>23.690000</ele>
                <time>2015-09-27T04:06:23Z</time>
            </trkpt>
            <trkpt lon="100.944285" lat="14.522625">
                <ele>23.210000</ele>
                <time>2015-09-27T04:06:39Z</time>
            </trkpt>
            <trkpt lon="100.944201" lat="14.522236">
                <ele>22.730000</ele>
                <time>2015-09-27T04:06:51Z</time>
            </trkpt>
            <trkpt lon="100.944108" lat="14.521714">
                <ele>22.250000</ele>
                <time>2015-09-27T04:07:06Z</time>
            </trkpt>
            <trkpt lon="100.943941" lat="14.521491">
                <ele>24.170000</ele>
                <time>2015-09-27T04:07:17Z</time>
            </trkpt>
            <trkpt lon="100.943911" lat="14.521325">
                <ele>24.170000</ele>
                <time>2015-09-27T04:07:25Z</time>
            </trkpt>
            <trkpt lon="100.943920" lat="14.521308">
                <ele>24.170000</ele>
                <time>2015-09-27T04:07:26Z</time>
            </trkpt>
            <trkpt lon="100.943934" lat="14.521292">
                <ele>23.690000</ele>
                <time>2015-09-27T04:07:27Z</time>
            </trkpt>
            <trkpt lon="100.943956" lat="14.521280">
                <ele>23.690000</ele>
                <time>2015-09-27T04:07:28Z</time>
            </trkpt>
            <trkpt lon="100.943976" lat="14.521269">
                <ele>23.690000</ele>
                <time>2015-09-27T04:07:29Z</time>
            </trkpt>
            <trkpt lon="100.944000" lat="14.521256">
                <ele>23.690000</ele>
                <time>2015-09-27T04:07:30Z</time>
            </trkpt>
            <trkpt lon="100.944559" lat="14.520995">
                <ele>22.250000</ele>
                <time>2015-09-27T04:07:45Z</time>
            </trkpt>
            <trkpt lon="100.944600" lat="14.520978">
                <ele>22.250000</ele>
                <time>2015-09-27T04:07:46Z</time>
            </trkpt>
            <trkpt lon="100.945378" lat="14.520664">
                <ele>20.810000</ele>
                <time>2015-09-27T04:08:04Z</time>
            </trkpt>
            <trkpt lon="100.946229" lat="14.520294">
                <ele>20.320000</ele>
                <time>2015-09-27T04:08:23Z</time>
            </trkpt>
            <trkpt lon="100.947189" lat="14.519871">
                <ele>19.840000</ele>
                <time>2015-09-27T04:08:43Z</time>
            </trkpt>
            <trkpt lon="100.947585" lat="14.519682">
                <ele>19.360000</ele>
                <time>2015-09-27T04:08:54Z</time>
            </trkpt>
            <trkpt lon="100.947605" lat="14.519691">
                <ele>19.360000</ele>
                <time>2015-09-27T04:08:55Z</time>
            </trkpt>
            <trkpt lon="100.947635" lat="14.519739">
                <ele>18.880000</ele>
                <time>2015-09-27T04:08:57Z</time>
            </trkpt>
            <trkpt lon="100.947698" lat="14.519910">
                <ele>17.920000</ele>
                <time>2015-09-27T04:09:02Z</time>
            </trkpt>
            <trkpt lon="100.947736" lat="14.520047">
                <ele>17.440000</ele>
                <time>2015-09-27T04:09:05Z</time>
            </trkpt>
            <trkpt lon="100.947948" lat="14.520528">
                <ele>17.440000</ele>
                <time>2015-09-27T04:09:18Z</time>
            </trkpt>
            <trkpt lon="100.948106" lat="14.520895">
                <ele>17.440000</ele>
                <time>2015-09-27T04:09:28Z</time>
            </trkpt>
            <trkpt lon="100.948227" lat="14.521505">
                <ele>18.400000</ele>
                <time>2015-09-27T04:09:43Z</time>
            </trkpt>
            <trkpt lon="100.948269" lat="14.521842">
                <ele>18.400000</ele>
                <time>2015-09-27T04:09:51Z</time>
            </trkpt>
            <trkpt lon="100.948328" lat="14.522304">
                <ele>18.400000</ele>
                <time>2015-09-27T04:10:02Z</time>
            </trkpt>
            <trkpt lon="100.948391" lat="14.522474">
                <ele>18.400000</ele>
                <time>2015-09-27T04:10:06Z</time>
            </trkpt>
            <trkpt lon="100.948443" lat="14.522623">
                <ele>18.400000</ele>
                <time>2015-09-27T04:10:10Z</time>
            </trkpt>
            <trkpt lon="100.948529" lat="14.522833">
                <ele>18.400000</ele>
                <time>2015-09-27T04:10:15Z</time>
            </trkpt>
            <trkpt lon="100.948738" lat="14.523512">
                <ele>17.920000</ele>
                <time>2015-09-27T04:10:31Z</time>
            </trkpt>
            <trkpt lon="100.948840" lat="14.524092">
                <ele>17.440000</ele>
                <time>2015-09-27T04:10:44Z</time>
            </trkpt>
            <trkpt lon="100.949001" lat="14.524296">
                <ele>17.440000</ele>
                <time>2015-09-27T04:10:51Z</time>
            </trkpt>
            <trkpt lon="100.949253" lat="14.524367">
                <ele>17.440000</ele>
                <time>2015-09-27T04:10:58Z</time>
            </trkpt>
            <trkpt lon="100.949385" lat="14.524513">
                <ele>17.440000</ele>
                <time>2015-09-27T04:11:03Z</time>
            </trkpt>
            <trkpt lon="100.949765" lat="14.524675">
                <ele>17.440000</ele>
                <time>2015-09-27T04:11:14Z</time>
            </trkpt>
            <trkpt lon="100.950137" lat="14.524560">
                <ele>17.440000</ele>
                <time>2015-09-27T04:11:25Z</time>
            </trkpt>
            <trkpt lon="100.950465" lat="14.524308">
                <ele>16.960000</ele>
                <time>2015-09-27T04:11:39Z</time>
            </trkpt>
            <trkpt lon="100.950492" lat="14.524307">
                <ele>16.960000</ele>
                <time>2015-09-27T04:12:01Z</time>
            </trkpt>
            <trkpt lon="100.950593" lat="14.524266">
                <ele>16.960000</ele>
                <time>2015-09-27T04:12:15Z</time>
            </trkpt>
            <trkpt lon="100.950674" lat="14.524198">
                <ele>16.480000</ele>
                <time>2015-09-27T04:12:30Z</time>
            </trkpt>
            <trkpt lon="100.950776" lat="14.524134">
                <ele>15.520000</ele>
                <time>2015-09-27T04:12:47Z</time>
            </trkpt>
            <trkpt lon="100.950887" lat="14.524074">
                <ele>15.520000</ele>
                <time>2015-09-27T04:13:04Z</time>
            </trkpt>
            <trkpt lon="100.950904" lat="14.524074">
                <ele>16.000000</ele>
                <time>2015-09-27T04:13:06Z</time>
            </trkpt>
            <trkpt lon="100.951053" lat="14.524061">
                <ele>16.480000</ele>
                <time>2015-09-27T04:13:15Z</time>
            </trkpt>
            <trkpt lon="100.951069" lat="14.524045">
                <ele>16.480000</ele>
                <time>2015-09-27T04:13:16Z</time>
            </trkpt>
            <trkpt lon="100.951180" lat="14.523974">
                <ele>17.440000</ele>
                <time>2015-09-27T04:13:28Z</time>
            </trkpt>
            <trkpt lon="100.951195" lat="14.523956">
                <ele>16.000000</ele>
                <time>2015-09-27T04:13:43Z</time>
            </trkpt>
            <trkpt lon="100.951209" lat="14.524033">
                <ele>18.400000</ele>
                <time>2015-09-27T04:13:58Z</time>
            </trkpt>
            <trkpt lon="100.951235" lat="14.524082">
                <ele>19.360000</ele>
                <time>2015-09-27T04:14:06Z</time>
            </trkpt>
            <trkpt lon="100.951258" lat="14.524126">
                <ele>19.360000</ele>
                <time>2015-09-27T04:14:10Z</time>
            </trkpt>
            <trkpt lon="100.951287" lat="14.524201">
                <ele>19.360000</ele>
                <time>2015-09-27T04:14:20Z</time>
            </trkpt>
            <trkpt lon="100.951334" lat="14.524220">
                <ele>18.880000</ele>
                <time>2015-09-27T04:14:37Z</time>
            </trkpt>
            <trkpt lon="100.951344" lat="14.524216">
                <ele>17.920000</ele>
                <time>2015-09-27T04:14:50Z</time>
            </trkpt>
            <trkpt lon="100.951347" lat="14.524226">
                <ele>18.880000</ele>
                <time>2015-09-27T04:15:23Z</time>
            </trkpt>
            <trkpt lon="100.951360" lat="14.524219">
                <ele>18.880000</ele>
                <time>2015-09-27T04:15:29Z</time>
            </trkpt>
            <trkpt lon="100.951441" lat="14.524226">
                <ele>19.840000</ele>
                <time>2015-09-27T04:15:34Z</time>
            </trkpt>
            <trkpt lon="100.951825" lat="14.524352">
                <ele>19.360000</ele>
                <time>2015-09-27T04:15:48Z</time>
            </trkpt>
            <trkpt lon="100.952078" lat="14.524433">
                <ele>18.880000</ele>
                <time>2015-09-27T04:16:01Z</time>
            </trkpt>
            <trkpt lon="100.952082" lat="14.524437">
                <ele>18.880000</ele>
                <time>2015-09-27T04:16:04Z</time>
            </trkpt>
            <trkpt lon="100.952118" lat="14.524445">
                <ele>18.880000</ele>
                <time>2015-09-27T04:16:11Z</time>
            </trkpt>
            <trkpt lon="100.952423" lat="14.524552">
                <ele>19.360000</ele>
                <time>2015-09-27T04:16:25Z</time>
            </trkpt>
            <trkpt lon="100.952456" lat="14.524796">
                <ele>18.400000</ele>
                <time>2015-09-27T04:16:36Z</time>
            </trkpt>
            <trkpt lon="100.952496" lat="14.524903">
                <ele>18.880000</ele>
                <time>2015-09-27T04:16:40Z</time>
            </trkpt>
            <trkpt lon="100.952441" lat="14.525036">
                <ele>18.400000</ele>
                <time>2015-09-27T04:16:46Z</time>
            </trkpt>
            <trkpt lon="100.952616" lat="14.525402">
                <ele>18.880000</ele>
                <time>2015-09-27T04:17:00Z</time>
            </trkpt>
            <trkpt lon="100.952703" lat="14.525506">
                <ele>18.880000</ele>
                <time>2015-09-27T04:17:04Z</time>
            </trkpt>
            <trkpt lon="100.952738" lat="14.525722">
                <ele>19.840000</ele>
                <time>2015-09-27T04:17:12Z</time>
            </trkpt>
            <trkpt lon="100.952825" lat="14.525751">
                <ele>20.810000</ele>
                <time>2015-09-27T04:17:16Z</time>
            </trkpt>
            <trkpt lon="100.953372" lat="14.525902">
                <ele>19.840000</ele>
                <time>2015-09-27T04:17:31Z</time>
            </trkpt>
            <trkpt lon="100.954074" lat="14.526115">
                <ele>19.840000</ele>
                <time>2015-09-27T04:17:49Z</time>
            </trkpt>
            <trkpt lon="100.954212" lat="14.526693">
                <ele>18.400000</ele>
                <time>2015-09-27T04:18:03Z</time>
            </trkpt>
            <trkpt lon="100.954478" lat="14.526935">
                <ele>18.400000</ele>
                <time>2015-09-27T04:18:11Z</time>
            </trkpt>
            <trkpt lon="100.955256" lat="14.527162">
                <ele>19.840000</ele>
                <time>2015-09-27T04:18:28Z</time>
            </trkpt>
            <trkpt lon="100.956384" lat="14.527484">
                <ele>19.360000</ele>
                <time>2015-09-27T04:18:50Z</time>
            </trkpt>
            <trkpt lon="100.957416" lat="14.527794">
                <ele>20.320000</ele>
                <time>2015-09-27T04:19:10Z</time>
            </trkpt>
            <trkpt lon="100.958223" lat="14.528011">
                <ele>19.840000</ele>
                <time>2015-09-27T04:19:27Z</time>
            </trkpt>
            <trkpt lon="100.959418" lat="14.528364">
                <ele>19.360000</ele>
                <time>2015-09-27T04:19:51Z</time>
            </trkpt>
            <trkpt lon="100.960123" lat="14.528577">
                <ele>19.840000</ele>
                <time>2015-09-27T04:20:06Z</time>
            </trkpt>
            <trkpt lon="100.960385" lat="14.528662">
                <ele>18.880000</ele>
                <time>2015-09-27T04:20:15Z</time>
            </trkpt>
            <trkpt lon="100.960413" lat="14.528672">
                <ele>18.880000</ele>
                <time>2015-09-27T04:20:16Z</time>
            </trkpt>
            <trkpt lon="100.960647" lat="14.528814">
                <ele>20.320000</ele>
                <time>2015-09-27T04:20:26Z</time>
            </trkpt>
            <trkpt lon="100.960655" lat="14.528722">
                <ele>19.840000</ele>
                <time>2015-09-27T04:20:33Z</time>
            </trkpt>
            <trkpt lon="100.960471" lat="14.528649">
                <ele>20.320000</ele>
                <time>2015-09-27T04:20:40Z</time>
            </trkpt>
            <trkpt lon="100.960449" lat="14.528529">
                <ele>19.840000</ele>
                <time>2015-09-27T04:20:44Z</time>
            </trkpt>
            <trkpt lon="100.960682" lat="14.527782">
                <ele>19.360000</ele>
                <time>2015-09-27T04:21:03Z</time>
            </trkpt>
            <trkpt lon="100.960697" lat="14.527028">
                <ele>18.400000</ele>
                <time>2015-09-27T04:21:20Z</time>
            </trkpt>
            <trkpt lon="100.960691" lat="14.526382">
                <ele>17.920000</ele>
                <time>2015-09-27T04:21:34Z</time>
            </trkpt>
            <trkpt lon="100.960678" lat="14.525796">
                <ele>17.440000</ele>
                <time>2015-09-27T04:21:47Z</time>
            </trkpt>
            <trkpt lon="100.960510" lat="14.525550">
                <ele>18.880000</ele>
                <time>2015-09-27T04:21:54Z</time>
            </trkpt>
            <trkpt lon="100.959676" lat="14.524945">
                <ele>18.880000</ele>
                <time>2015-09-27T04:22:17Z</time>
            </trkpt>
            <trkpt lon="100.959620" lat="14.524605">
                <ele>18.400000</ele>
                <time>2015-09-27T04:22:25Z</time>
            </trkpt>
            <trkpt lon="100.959625" lat="14.523786">
                <ele>17.920000</ele>
                <time>2015-09-27T04:22:44Z</time>
            </trkpt>
            <trkpt lon="100.959631" lat="14.522876">
                <ele>18.400000</ele>
                <time>2015-09-27T04:23:04Z</time>
            </trkpt>
            <trkpt lon="100.959617" lat="14.522167">
                <ele>17.920000</ele>
                <time>2015-09-27T04:23:19Z</time>
            </trkpt>
            <trkpt lon="100.959629" lat="14.521321">
                <ele>18.400000</ele>
                <time>2015-09-27T04:23:38Z</time>
            </trkpt>
            <trkpt lon="100.959693" lat="14.521015">
                <ele>19.840000</ele>
                <time>2015-09-27T04:23:48Z</time>
            </trkpt>
            <trkpt lon="100.959679" lat="14.520992">
                <ele>19.840000</ele>
                <time>2015-09-27T04:23:49Z</time>
            </trkpt>
            <trkpt lon="100.959655" lat="14.520967">
                <ele>20.320000</ele>
                <time>2015-09-27T04:23:50Z</time>
            </trkpt>
            <trkpt lon="100.959628" lat="14.520942">
                <ele>20.320000</ele>
                <time>2015-09-27T04:23:51Z</time>
            </trkpt>
            <trkpt lon="100.959598" lat="14.520917">
                <ele>20.320000</ele>
                <time>2015-09-27T04:23:52Z</time>
            </trkpt>
            <trkpt lon="100.958945" lat="14.520480">
                <ele>20.810000</ele>
                <time>2015-09-27T04:24:09Z</time>
            </trkpt>
            <trkpt lon="100.958332" lat="14.520253">
                <ele>20.810000</ele>
                <time>2015-09-27T04:24:24Z</time>
            </trkpt>
            <trkpt lon="100.958174" lat="14.520127">
                <ele>21.290000</ele>
                <time>2015-09-27T04:24:29Z</time>
            </trkpt>
            <trkpt lon="100.958165" lat="14.520005">
                <ele>20.810000</ele>
                <time>2015-09-27T04:24:33Z</time>
            </trkpt>
            <trkpt lon="100.958473" lat="14.519688">
                <ele>20.320000</ele>
                <time>2015-09-27T04:24:47Z</time>
            </trkpt>
            <trkpt lon="100.958745" lat="14.519489">
                <ele>19.840000</ele>
                <time>2015-09-27T04:25:00Z</time>
            </trkpt>
            <trkpt lon="100.958737" lat="14.519447">
                <ele>19.360000</ele>
                <time>2015-09-27T04:25:09Z</time>
            </trkpt>
            <trkpt lon="100.958722" lat="14.519407">
                <ele>19.360000</ele>
                <time>2015-09-27T04:25:17Z</time>
            </trkpt>
            <trkpt lon="100.958516" lat="14.519127">
                <ele>18.880000</ele>
                <time>2015-09-27T04:25:31Z</time>
            </trkpt>
            <trkpt lon="100.958457" lat="14.519059">
                <ele>17.920000</ele>
                <time>2015-09-27T04:25:42Z</time>
            </trkpt>
            <trkpt lon="100.958451" lat="14.519053">
                <ele>17.920000</ele>
                <time>2015-09-27T04:25:44Z</time>
            </trkpt>
            <trkpt lon="100.958401" lat="14.519023">
                <ele>18.400000</ele>
                <time>2015-09-27T04:25:52Z</time>
            </trkpt>
            <trkpt lon="100.958393" lat="14.519008">
                <ele>18.400000</ele>
                <time>2015-09-27T04:25:54Z</time>
            </trkpt>
            <trkpt lon="100.958458" lat="14.518940">
                <ele>17.440000</ele>
                <time>2015-09-27T04:26:10Z</time>
            </trkpt>
            <trkpt lon="100.958520" lat="14.518897">
                <ele>17.440000</ele>
                <time>2015-09-27T04:26:14Z</time>
            </trkpt>
            <trkpt lon="100.958566" lat="14.518883">
                <ele>17.920000</ele>
                <time>2015-09-27T04:26:16Z</time>
            </trkpt>
            <trkpt lon="100.958613" lat="14.518856">
                <ele>17.920000</ele>
                <time>2015-09-27T04:26:19Z</time>
            </trkpt>
            <trkpt lon="100.958680" lat="14.518790">
                <ele>17.920000</ele>
                <time>2015-09-27T04:26:24Z</time>
            </trkpt>
            <trkpt lon="100.958793" lat="14.518817">
                <ele>17.440000</ele>
                <time>2015-09-27T04:26:31Z</time>
            </trkpt>
            <trkpt lon="100.958867" lat="14.518772">
                <ele>16.960000</ele>
                <time>2015-09-27T04:26:43Z</time>
            </trkpt>
            <trkpt lon="100.958894" lat="14.518732">
                <ele>16.000000</ele>
                <time>2015-09-27T04:26:59Z</time>
            </trkpt>
            <trkpt lon="100.958909" lat="14.518731">
                <ele>18.880000</ele>
                <time>2015-09-27T04:27:11Z</time>
            </trkpt>
            <trkpt lon="100.958933" lat="14.518723">
                <ele>19.840000</ele>
                <time>2015-09-27T04:27:26Z</time>
            </trkpt>
            <trkpt lon="100.958951" lat="14.518688">
                <ele>18.880000</ele>
                <time>2015-09-27T04:27:45Z</time>
            </trkpt>
            <trkpt lon="100.958919" lat="14.518635">
                <ele>17.920000</ele>
                <time>2015-09-27T04:27:53Z</time>
            </trkpt>
            <trkpt lon="100.958931" lat="14.518537">
                <ele>16.480000</ele>
                <time>2015-09-27T04:28:06Z</time>
            </trkpt>
            <trkpt lon="100.958929" lat="14.518451">
                <ele>16.000000</ele>
                <time>2015-09-27T04:28:19Z</time>
            </trkpt>
            <trkpt lon="100.958951" lat="14.518378">
                <ele>17.920000</ele>
                <time>2015-09-27T04:28:29Z</time>
            </trkpt>
            <trkpt lon="100.958940" lat="14.518283">
                <ele>18.880000</ele>
                <time>2015-09-27T04:28:36Z</time>
            </trkpt>
            <trkpt lon="100.958950" lat="14.518023">
                <ele>19.840000</ele>
                <time>2015-09-27T04:28:49Z</time>
            </trkpt>
            <trkpt lon="100.958974" lat="14.517974">
                <ele>19.840000</ele>
                <time>2015-09-27T04:28:52Z</time>
            </trkpt>
            <trkpt lon="100.958974" lat="14.517939">
                <ele>19.840000</ele>
                <time>2015-09-27T04:28:54Z</time>
            </trkpt>
            <trkpt lon="100.958986" lat="14.517913">
                <ele>19.840000</ele>
                <time>2015-09-27T04:28:56Z</time>
            </trkpt>
            <trkpt lon="100.959019" lat="14.517869">
                <ele>19.360000</ele>
                <time>2015-09-27T04:29:06Z</time>
            </trkpt>
            <trkpt lon="100.959103" lat="14.517848">
                <ele>18.880000</ele>
                <time>2015-09-27T04:29:12Z</time>
            </trkpt>
            <trkpt lon="100.959311" lat="14.517762">
                <ele>19.360000</ele>
                <time>2015-09-27T04:29:26Z</time>
            </trkpt>
            <trkpt lon="100.959446" lat="14.517634">
                <ele>20.810000</ele>
                <time>2015-09-27T04:29:35Z</time>
            </trkpt>
            <trkpt lon="100.959432" lat="14.517539">
                <ele>21.290000</ele>
                <time>2015-09-27T04:29:40Z</time>
            </trkpt>
            <trkpt lon="100.959312" lat="14.517243">
                <ele>21.290000</ele>
                <time>2015-09-27T04:29:53Z</time>
            </trkpt>
            <trkpt lon="100.959348" lat="14.517041">
                <ele>20.320000</ele>
                <time>2015-09-27T04:30:03Z</time>
            </trkpt>
            <trkpt lon="100.959501" lat="14.516794">
                <ele>19.840000</ele>
                <time>2015-09-27T04:30:17Z</time>
            </trkpt>
            <trkpt lon="100.959548" lat="14.516717">
                <ele>21.290000</ele>
                <time>2015-09-27T04:30:23Z</time>
            </trkpt>
            <trkpt lon="100.959439" lat="14.516630">
                <ele>21.290000</ele>
                <time>2015-09-27T04:30:30Z</time>
            </trkpt>
            <trkpt lon="100.959475" lat="14.516535">
                <ele>20.320000</ele>
                <time>2015-09-27T04:30:37Z</time>
            </trkpt>
            <trkpt lon="100.959829" lat="14.516287">
                <ele>20.320000</ele>
                <time>2015-09-27T04:30:53Z</time>
            </trkpt>
            <trkpt lon="100.959952" lat="14.515874">
                <ele>19.840000</ele>
                <time>2015-09-27T04:31:07Z</time>
            </trkpt>
            <trkpt lon="100.959941" lat="14.515574">
                <ele>19.840000</ele>
                <time>2015-09-27T04:31:20Z</time>
            </trkpt>
            <trkpt lon="100.959976" lat="14.515229">
                <ele>20.320000</ele>
                <time>2015-09-27T04:31:32Z</time>
            </trkpt>
            <trkpt lon="100.960027" lat="14.514728">
                <ele>20.810000</ele>
                <time>2015-09-27T04:31:48Z</time>
            </trkpt>
            <trkpt lon="100.960065" lat="14.514205">
                <ele>20.810000</ele>
                <time>2015-09-27T04:32:03Z</time>
            </trkpt>
            <trkpt lon="100.960190" lat="14.513495">
                <ele>19.840000</ele>
                <time>2015-09-27T04:32:22Z</time>
            </trkpt>
            <trkpt lon="100.960443" lat="14.513055">
                <ele>19.360000</ele>
                <time>2015-09-27T04:32:37Z</time>
            </trkpt>
            <trkpt lon="100.960630" lat="14.512629">
                <ele>19.360000</ele>
                <time>2015-09-27T04:32:49Z</time>
            </trkpt>
            <trkpt lon="100.960880" lat="14.512016">
                <ele>20.810000</ele>
                <time>2015-09-27T04:33:06Z</time>
            </trkpt>
            <trkpt lon="100.960861" lat="14.511736">
                <ele>20.320000</ele>
                <time>2015-09-27T04:33:14Z</time>
            </trkpt>
            <trkpt lon="100.960901" lat="14.511681">
                <ele>20.320000</ele>
                <time>2015-09-27T04:33:17Z</time>
            </trkpt>
            <trkpt lon="100.960925" lat="14.511686">
                <ele>20.320000</ele>
                <time>2015-09-27T04:33:18Z</time>
            </trkpt>
            <trkpt lon="100.960949" lat="14.511700">
                <ele>20.320000</ele>
                <time>2015-09-27T04:33:19Z</time>
            </trkpt>
            <trkpt lon="100.960974" lat="14.511717">
                <ele>20.320000</ele>
                <time>2015-09-27T04:33:20Z</time>
            </trkpt>
            <trkpt lon="100.961430" lat="14.512005">
                <ele>19.360000</ele>
                <time>2015-09-27T04:33:34Z</time>
            </trkpt>
            <trkpt lon="100.961470" lat="14.512019">
                <ele>19.360000</ele>
                <time>2015-09-27T04:33:35Z</time>
            </trkpt>
            <trkpt lon="100.961961" lat="14.512239">
                <ele>19.840000</ele>
                <time>2015-09-27T04:33:49Z</time>
            </trkpt>
            <trkpt lon="100.962243" lat="14.512601">
                <ele>20.810000</ele>
                <time>2015-09-27T04:34:00Z</time>
            </trkpt>
            <trkpt lon="100.962275" lat="14.512630">
                <ele>20.810000</ele>
                <time>2015-09-27T04:34:01Z</time>
            </trkpt>
            <trkpt lon="100.962309" lat="14.512658">
                <ele>20.810000</ele>
                <time>2015-09-27T04:34:02Z</time>
            </trkpt>
            <trkpt lon="100.962785" lat="14.512969">
                <ele>20.320000</ele>
                <time>2015-09-27T04:34:16Z</time>
            </trkpt>
            <trkpt lon="100.962826" lat="14.512974">
                <ele>20.320000</ele>
                <time>2015-09-27T04:34:17Z</time>
            </trkpt>
            <trkpt lon="100.963445" lat="14.513027">
                <ele>20.810000</ele>
                <time>2015-09-27T04:34:33Z</time>
            </trkpt>
            <trkpt lon="100.963667" lat="14.513111">
                <ele>20.810000</ele>
                <time>2015-09-27T04:34:39Z</time>
            </trkpt>
            <trkpt lon="100.963704" lat="14.513094">
                <ele>20.810000</ele>
                <time>2015-09-27T04:34:40Z</time>
            </trkpt>
            <trkpt lon="100.963738" lat="14.513070">
                <ele>20.810000</ele>
                <time>2015-09-27T04:34:41Z</time>
            </trkpt>
            <trkpt lon="100.963768" lat="14.513042">
                <ele>20.810000</ele>
                <time>2015-09-27T04:34:42Z</time>
            </trkpt>
            <trkpt lon="100.963796" lat="14.513010">
                <ele>20.810000</ele>
                <time>2015-09-27T04:34:43Z</time>
            </trkpt>
            <trkpt lon="100.963823" lat="14.512981">
                <ele>20.810000</ele>
                <time>2015-09-27T04:34:44Z</time>
            </trkpt>
            <trkpt lon="100.963852" lat="14.512952">
                <ele>20.810000</ele>
                <time>2015-09-27T04:34:45Z</time>
            </trkpt>
            <trkpt lon="100.964271" lat="14.512481">
                <ele>24.170000</ele>
                <time>2015-09-27T04:35:00Z</time>
            </trkpt>
            <trkpt lon="100.964526" lat="14.512220">
                <ele>23.690000</ele>
                <time>2015-09-27T04:35:09Z</time>
            </trkpt>
            <trkpt lon="100.964567" lat="14.512201">
                <ele>23.210000</ele>
                <time>2015-09-27T04:35:10Z</time>
            </trkpt>
            <trkpt lon="100.964609" lat="14.512190">
                <ele>23.210000</ele>
                <time>2015-09-27T04:35:11Z</time>
            </trkpt>
            <trkpt lon="100.964652" lat="14.512184">
                <ele>23.210000</ele>
                <time>2015-09-27T04:35:12Z</time>
            </trkpt>
            <trkpt lon="100.964695" lat="14.512180">
                <ele>23.210000</ele>
                <time>2015-09-27T04:35:13Z</time>
            </trkpt>
            <trkpt lon="100.964974" lat="14.511977">
                <ele>26.570000</ele>
                <time>2015-09-27T04:35:22Z</time>
            </trkpt>
            <trkpt lon="100.965024" lat="14.511915">
                <ele>27.050000</ele>
                <time>2015-09-27T04:35:24Z</time>
            </trkpt>
            <trkpt lon="100.965041" lat="14.511878">
                <ele>27.530000</ele>
                <time>2015-09-27T04:35:25Z</time>
            </trkpt>
            <trkpt lon="100.965052" lat="14.511840">
                <ele>27.530000</ele>
                <time>2015-09-27T04:35:26Z</time>
            </trkpt>
            <trkpt lon="100.965060" lat="14.511801">
                <ele>28.020000</ele>
                <time>2015-09-27T04:35:27Z</time>
            </trkpt>
            <trkpt lon="100.965067" lat="14.511762">
                <ele>28.020000</ele>
                <time>2015-09-27T04:35:28Z</time>
            </trkpt>
            <trkpt lon="100.965175" lat="14.511469">
                <ele>27.050000</ele>
                <time>2015-09-27T04:35:36Z</time>
            </trkpt>
            <trkpt lon="100.965180" lat="14.511426">
                <ele>26.570000</ele>
                <time>2015-09-27T04:35:37Z</time>
            </trkpt>
            <trkpt lon="100.965179" lat="14.511383">
                <ele>26.570000</ele>
                <time>2015-09-27T04:35:38Z</time>
            </trkpt>
            <trkpt lon="100.965174" lat="14.511341">
                <ele>26.090000</ele>
                <time>2015-09-27T04:35:39Z</time>
            </trkpt>
            <trkpt lon="100.965166" lat="14.511304">
                <ele>26.090000</ele>
                <time>2015-09-27T04:35:40Z</time>
            </trkpt>
            <trkpt lon="100.965141" lat="14.511234">
                <ele>25.610000</ele>
                <time>2015-09-27T04:35:42Z</time>
            </trkpt>
            <trkpt lon="100.964999" lat="14.510750">
                <ele>23.690000</ele>
                <time>2015-09-27T04:35:55Z</time>
            </trkpt>
            <trkpt lon="100.965106" lat="14.510453">
                <ele>23.210000</ele>
                <time>2015-09-27T04:36:04Z</time>
            </trkpt>
            <trkpt lon="100.965122" lat="14.510416">
                <ele>23.210000</ele>
                <time>2015-09-27T04:36:05Z</time>
            </trkpt>
            <trkpt lon="100.965300" lat="14.509922">
                <ele>23.210000</ele>
                <time>2015-09-27T04:36:19Z</time>
            </trkpt>
            <trkpt lon="100.965321" lat="14.509749">
                <ele>25.130000</ele>
                <time>2015-09-27T04:36:31Z</time>
            </trkpt>
            <trkpt lon="100.965329" lat="14.509752">
                <ele>24.650000</ele>
                <time>2015-09-27T04:36:53Z</time>
            </trkpt>
            <trkpt lon="100.965340" lat="14.509762">
                <ele>22.730000</ele>
                <time>2015-09-27T04:37:12Z</time>
            </trkpt>
            <trkpt lon="100.965356" lat="14.509766">
                <ele>23.210000</ele>
                <time>2015-09-27T04:37:15Z</time>
            </trkpt>
            <trkpt lon="100.965371" lat="14.509778">
                <ele>23.210000</ele>
                <time>2015-09-27T04:37:16Z</time>
            </trkpt>
            <trkpt lon="100.965389" lat="14.509794">
                <ele>23.210000</ele>
                <time>2015-09-27T04:37:17Z</time>
            </trkpt>
            <trkpt lon="100.965406" lat="14.509811">
                <ele>23.210000</ele>
                <time>2015-09-27T04:37:18Z</time>
            </trkpt>
            <trkpt lon="100.965426" lat="14.509830">
                <ele>23.210000</ele>
                <time>2015-09-27T04:37:19Z</time>
            </trkpt>
            <trkpt lon="100.965448" lat="14.509854">
                <ele>23.210000</ele>
                <time>2015-09-27T04:37:20Z</time>
            </trkpt>
            <trkpt lon="100.965805" lat="14.510284">
                <ele>22.730000</ele>
                <time>2015-09-27T04:37:35Z</time>
            </trkpt>
            <trkpt lon="100.966179" lat="14.510737">
                <ele>22.250000</ele>
                <time>2015-09-27T04:37:50Z</time>
            </trkpt>
            <trkpt lon="100.966564" lat="14.510934">
                <ele>23.210000</ele>
                <time>2015-09-27T04:38:02Z</time>
            </trkpt>
            <trkpt lon="100.966874" lat="14.510894">
                <ele>23.210000</ele>
                <time>2015-09-27T04:38:10Z</time>
            </trkpt>
            <trkpt lon="100.966902" lat="14.510918">
                <ele>23.210000</ele>
                <time>2015-09-27T04:38:11Z</time>
            </trkpt>
            <trkpt lon="100.966918" lat="14.510950">
                <ele>23.210000</ele>
                <time>2015-09-27T04:38:12Z</time>
            </trkpt>
            <trkpt lon="100.966927" lat="14.510984">
                <ele>23.210000</ele>
                <time>2015-09-27T04:38:13Z</time>
            </trkpt>
            <trkpt lon="100.966933" lat="14.511023">
                <ele>23.210000</ele>
                <time>2015-09-27T04:38:14Z</time>
            </trkpt>
            <trkpt lon="100.967136" lat="14.511803">
                <ele>22.250000</ele>
                <time>2015-09-27T04:38:32Z</time>
            </trkpt>
            <trkpt lon="100.967166" lat="14.511846">
                <ele>22.250000</ele>
                <time>2015-09-27T04:38:33Z</time>
            </trkpt>
            <trkpt lon="100.967198" lat="14.511886">
                <ele>22.250000</ele>
                <time>2015-09-27T04:38:34Z</time>
            </trkpt>
            <trkpt lon="100.967378" lat="14.512102">
                <ele>22.250000</ele>
                <time>2015-09-27T04:38:40Z</time>
            </trkpt>
            <trkpt lon="100.967538" lat="14.512285">
                <ele>22.730000</ele>
                <time>2015-09-27T04:38:46Z</time>
            </trkpt>
            <trkpt lon="100.967556" lat="14.512323">
                <ele>22.730000</ele>
                <time>2015-09-27T04:38:47Z</time>
            </trkpt>
            <trkpt lon="100.967567" lat="14.512364">
                <ele>22.730000</ele>
                <time>2015-09-27T04:38:48Z</time>
            </trkpt>
            <trkpt lon="100.967662" lat="14.512828">
                <ele>22.250000</ele>
                <time>2015-09-27T04:38:59Z</time>
            </trkpt>
            <trkpt lon="100.967779" lat="14.513454">
                <ele>22.250000</ele>
                <time>2015-09-27T04:39:14Z</time>
            </trkpt>
            <trkpt lon="100.967922" lat="14.513872">
                <ele>22.250000</ele>
                <time>2015-09-27T04:42:33Z</time>
            </trkpt>
            <trkpt lon="100.967908" lat="14.513868">
                <ele>22.250000</ele>
                <time>2015-09-27T04:42:34Z</time>
            </trkpt>
            <trkpt lon="100.967894" lat="14.513871">
                <ele>22.730000</ele>
                <time>2015-09-27T04:42:35Z</time>
            </trkpt>
            <trkpt lon="100.967569" lat="14.513958">
                <ele>23.690000</ele>
                <time>2015-09-27T04:42:48Z</time>
            </trkpt>
            <trkpt lon="100.966938" lat="14.514005">
                <ele>21.770000</ele>
                <time>2015-09-27T04:43:06Z</time>
            </trkpt>
            <trkpt lon="100.966522" lat="14.514000">
                <ele>24.170000</ele>
                <time>2015-09-27T04:43:19Z</time>
            </trkpt>
            <trkpt lon="100.966026" lat="14.514044">
                <ele>22.730000</ele>
                <time>2015-09-27T04:43:36Z</time>
            </trkpt>
            <trkpt lon="100.965768" lat="14.513857">
                <ele>22.730000</ele>
                <time>2015-09-27T04:43:47Z</time>
            </trkpt>
            <trkpt lon="100.965719" lat="14.513793">
                <ele>22.730000</ele>
                <time>2015-09-27T04:43:49Z</time>
            </trkpt>
            <trkpt lon="100.965346" lat="14.513642">
                <ele>21.770000</ele>
                <time>2015-09-27T04:44:00Z</time>
            </trkpt>
            <trkpt lon="100.964939" lat="14.513638">
                <ele>22.250000</ele>
                <time>2015-09-27T04:44:11Z</time>
            </trkpt>
            <trkpt lon="100.964620" lat="14.513650">
                <ele>22.730000</ele>
                <time>2015-09-27T04:44:21Z</time>
            </trkpt>
            <trkpt lon="100.964113" lat="14.514029">
                <ele>18.400000</ele>
                <time>2015-09-27T04:44:37Z</time>
            </trkpt>
            <trkpt lon="100.963801" lat="14.514260">
                <ele>14.080000</ele>
                <time>2015-09-27T04:44:49Z</time>
            </trkpt>
            <trkpt lon="100.963601" lat="14.514398">
                <ele>13.600000</ele>
                <time>2015-09-27T04:44:55Z</time>
            </trkpt>
            <trkpt lon="100.963461" lat="14.514503">
                <ele>14.080000</ele>
                <time>2015-09-27T04:44:59Z</time>
            </trkpt>
            <trkpt lon="100.963235" lat="14.514656">
                <ele>15.520000</ele>
                <time>2015-09-27T04:45:06Z</time>
            </trkpt>
            <trkpt lon="100.963224" lat="14.514681">
                <ele>15.520000</ele>
                <time>2015-09-27T04:45:07Z</time>
            </trkpt>
            <trkpt lon="100.963227" lat="14.514707">
                <ele>16.000000</ele>
                <time>2015-09-27T04:45:08Z</time>
            </trkpt>
            <trkpt lon="100.963270" lat="14.514791">
                <ele>16.480000</ele>
                <time>2015-09-27T04:45:11Z</time>
            </trkpt>
            <trkpt lon="100.963639" lat="14.515138">
                <ele>17.440000</ele>
                <time>2015-09-27T04:45:25Z</time>
            </trkpt>
            <trkpt lon="100.963716" lat="14.515366">
                <ele>18.400000</ele>
                <time>2015-09-27T04:45:32Z</time>
            </trkpt>
            <trkpt lon="100.963680" lat="14.515470">
                <ele>18.880000</ele>
                <time>2015-09-27T04:45:36Z</time>
            </trkpt>
            <trkpt lon="100.963742" lat="14.515953">
                <ele>20.810000</ele>
                <time>2015-09-27T04:45:50Z</time>
            </trkpt>
            <trkpt lon="100.963811" lat="14.516120">
                <ele>20.810000</ele>
                <time>2015-09-27T04:45:56Z</time>
            </trkpt>
            <trkpt lon="100.963792" lat="14.516251">
                <ele>21.770000</ele>
                <time>2015-09-27T04:46:07Z</time>
            </trkpt>
            <trkpt lon="100.963829" lat="14.516277">
                <ele>21.770000</ele>
                <time>2015-09-27T04:46:21Z</time>
            </trkpt>
            <trkpt lon="100.963868" lat="14.516425">
                <ele>21.290000</ele>
                <time>2015-09-27T04:46:41Z</time>
            </trkpt>
            <trkpt lon="100.963864" lat="14.516476">
                <ele>21.290000</ele>
                <time>2015-09-27T04:46:49Z</time>
            </trkpt>
            <trkpt lon="100.963715" lat="14.516499">
                <ele>22.730000</ele>
                <time>2015-09-27T04:47:05Z</time>
            </trkpt>
            <trkpt lon="100.963715" lat="14.516533">
                <ele>21.770000</ele>
                <time>2015-09-27T04:47:15Z</time>
            </trkpt>
            <trkpt lon="100.963802" lat="14.516817">
                <ele>21.770000</ele>
                <time>2015-09-27T04:47:29Z</time>
            </trkpt>
            <trkpt lon="100.963812" lat="14.516820">
                <ele>21.290000</ele>
                <time>2015-09-27T04:47:31Z</time>
            </trkpt>
            <trkpt lon="100.964032" lat="14.516821">
                <ele>22.250000</ele>
                <time>2015-09-27T04:47:45Z</time>
            </trkpt>
            <trkpt lon="100.964163" lat="14.516816">
                <ele>21.770000</ele>
                <time>2015-09-27T04:47:59Z</time>
            </trkpt>
            <trkpt lon="100.964337" lat="14.516812">
                <ele>22.250000</ele>
                <time>2015-09-27T04:48:16Z</time>
            </trkpt>
            <trkpt lon="100.964498" lat="14.516811">
                <ele>20.320000</ele>
                <time>2015-09-27T04:48:31Z</time>
            </trkpt>
            <trkpt lon="100.964671" lat="14.516802">
                <ele>20.810000</ele>
                <time>2015-09-27T04:48:48Z</time>
            </trkpt>
            <trkpt lon="100.964751" lat="14.516839">
                <ele>21.290000</ele>
                <time>2015-09-27T04:49:02Z</time>
            </trkpt>
            <trkpt lon="100.964759" lat="14.516844">
                <ele>21.290000</ele>
                <time>2015-09-27T04:49:10Z</time>
            </trkpt>
            <trkpt lon="100.964762" lat="14.516942">
                <ele>20.810000</ele>
                <time>2015-09-27T04:49:15Z</time>
            </trkpt>
            <trkpt lon="100.964765" lat="14.517274">
                <ele>20.320000</ele>
                <time>2015-09-27T04:49:29Z</time>
            </trkpt>
            <trkpt lon="100.964705" lat="14.517503">
                <ele>19.840000</ele>
                <time>2015-09-27T04:49:41Z</time>
            </trkpt>
            <trkpt lon="100.964744" lat="14.517839">
                <ele>19.360000</ele>
                <time>2015-09-27T04:49:52Z</time>
            </trkpt>
            <trkpt lon="100.964815" lat="14.518412">
                <ele>19.840000</ele>
                <time>2015-09-27T04:50:09Z</time>
            </trkpt>
            <trkpt lon="100.964903" lat="14.518878">
                <ele>19.840000</ele>
                <time>2015-09-27T04:50:25Z</time>
            </trkpt>
            <trkpt lon="100.964940" lat="14.519207">
                <ele>20.320000</ele>
                <time>2015-09-27T04:50:36Z</time>
            </trkpt>
            <trkpt lon="100.965014" lat="14.519667">
                <ele>20.320000</ele>
                <time>2015-09-27T04:50:51Z</time>
            </trkpt>
            <trkpt lon="100.965030" lat="14.520155">
                <ele>19.840000</ele>
                <time>2015-09-27T04:51:06Z</time>
            </trkpt>
            <trkpt lon="100.965016" lat="14.520523">
                <ele>20.320000</ele>
                <time>2015-09-27T04:51:18Z</time>
            </trkpt>
            <trkpt lon="100.965047" lat="14.520881">
                <ele>19.840000</ele>
                <time>2015-09-27T04:51:29Z</time>
            </trkpt>
            <trkpt lon="100.965045" lat="14.521037">
                <ele>19.840000</ele>
                <time>2015-09-27T04:51:40Z</time>
            </trkpt>
            <trkpt lon="100.965043" lat="14.521097">
                <ele>20.810000</ele>
                <time>2015-09-27T04:51:50Z</time>
            </trkpt>
            <trkpt lon="100.965045" lat="14.521109">
                <ele>19.360000</ele>
                <time>2015-09-27T04:52:09Z</time>
            </trkpt>
            <trkpt lon="100.965116" lat="14.521138">
                <ele>19.840000</ele>
                <time>2015-09-27T04:52:23Z</time>
            </trkpt>
            <trkpt lon="100.965166" lat="14.521134">
                <ele>20.320000</ele>
                <time>2015-09-27T04:52:44Z</time>
            </trkpt>
            <trkpt lon="100.965186" lat="14.521192">
                <ele>18.880000</ele>
                <time>2015-09-27T04:52:58Z</time>
            </trkpt>
            <trkpt lon="100.965180" lat="14.521296">
                <ele>17.920000</ele>
                <time>2015-09-27T04:53:13Z</time>
            </trkpt>
            <trkpt lon="100.965181" lat="14.521325">
                <ele>16.480000</ele>
                <time>2015-09-27T04:53:30Z</time>
            </trkpt>
            <trkpt lon="100.965170" lat="14.521398">
                <ele>17.920000</ele>
                <time>2015-09-27T04:53:47Z</time>
            </trkpt>
            <trkpt lon="100.965168" lat="14.521560">
                <ele>18.400000</ele>
                <time>2015-09-27T04:54:03Z</time>
            </trkpt>
            <trkpt lon="100.965153" lat="14.521697">
                <ele>18.880000</ele>
                <time>2015-09-27T04:54:18Z</time>
            </trkpt>
            <trkpt lon="100.965154" lat="14.521850">
                <ele>19.360000</ele>
                <time>2015-09-27T04:54:32Z</time>
            </trkpt>
            <trkpt lon="100.965152" lat="14.521978">
                <ele>19.360000</ele>
                <time>2015-09-27T04:54:45Z</time>
            </trkpt>
            <trkpt lon="100.965145" lat="14.522123">
                <ele>19.840000</ele>
                <time>2015-09-27T04:54:58Z</time>
            </trkpt>
            <trkpt lon="100.965128" lat="14.522330">
                <ele>19.360000</ele>
                <time>2015-09-27T04:55:18Z</time>
            </trkpt>
            <trkpt lon="100.965129" lat="14.522435">
                <ele>19.360000</ele>
                <time>2015-09-27T04:55:33Z</time>
            </trkpt>
            <trkpt lon="100.965169" lat="14.522477">
                <ele>18.880000</ele>
                <time>2015-09-27T04:55:39Z</time>
            </trkpt>
            <trkpt lon="100.965240" lat="14.522511">
                <ele>18.400000</ele>
                <time>2015-09-27T04:55:53Z</time>
            </trkpt>
            <trkpt lon="100.965237" lat="14.522522">
                <ele>18.880000</ele>
                <time>2015-09-27T04:55:58Z</time>
            </trkpt>
            <trkpt lon="100.965187" lat="14.522566">
                <ele>18.880000</ele>
                <time>2015-09-27T04:56:05Z</time>
            </trkpt>
            <trkpt lon="100.965195" lat="14.522593">
                <ele>18.400000</ele>
                <time>2015-09-27T04:56:08Z</time>
            </trkpt>
            <trkpt lon="100.965261" lat="14.522730">
                <ele>18.400000</ele>
                <time>2015-09-27T04:56:23Z</time>
            </trkpt>
            <trkpt lon="100.965241" lat="14.522926">
                <ele>18.400000</ele>
                <time>2015-09-27T04:56:42Z</time>
            </trkpt>
            <trkpt lon="100.965245" lat="14.522962">
                <ele>17.920000</ele>
                <time>2015-09-27T04:56:45Z</time>
            </trkpt>
            <trkpt lon="100.965242" lat="14.523003">
                <ele>17.440000</ele>
                <time>2015-09-27T04:56:49Z</time>
            </trkpt>
            <trkpt lon="100.965275" lat="14.523018">
                <ele>17.440000</ele>
                <time>2015-09-27T04:56:53Z</time>
            </trkpt>
            <trkpt lon="100.965449" lat="14.523006">
                <ele>20.320000</ele>
                <time>2015-09-27T04:57:10Z</time>
            </trkpt>
            <trkpt lon="100.965482" lat="14.522997">
                <ele>20.810000</ele>
                <time>2015-09-27T04:57:13Z</time>
            </trkpt>
            <trkpt lon="100.965584" lat="14.523010">
                <ele>19.840000</ele>
                <time>2015-09-27T04:57:28Z</time>
            </trkpt>
            <trkpt lon="100.965582" lat="14.523222">
                <ele>19.840000</ele>
                <time>2015-09-27T04:57:42Z</time>
            </trkpt>
            <trkpt lon="100.965627" lat="14.523244">
                <ele>20.320000</ele>
                <time>2015-09-27T04:57:50Z</time>
            </trkpt>
            <trkpt lon="100.965743" lat="14.523199">
                <ele>21.290000</ele>
                <time>2015-09-27T04:58:04Z</time>
            </trkpt>
            <trkpt lon="100.965772" lat="14.523179">
                <ele>20.810000</ele>
                <time>2015-09-27T04:58:07Z</time>
            </trkpt>
            <trkpt lon="100.965933" lat="14.523180">
                <ele>20.320000</ele>
                <time>2015-09-27T04:58:23Z</time>
            </trkpt>
            <trkpt lon="100.965941" lat="14.523181">
                <ele>20.320000</ele>
                <time>2015-09-27T04:58:24Z</time>
            </trkpt>
            <trkpt lon="100.965999" lat="14.523269">
                <ele>18.880000</ele>
                <time>2015-09-27T04:58:36Z</time>
            </trkpt>
            <trkpt lon="100.966017" lat="14.523470">
                <ele>18.400000</ele>
                <time>2015-09-27T04:58:54Z</time>
            </trkpt>
            <trkpt lon="100.966052" lat="14.523607">
                <ele>17.920000</ele>
                <time>2015-09-27T04:59:07Z</time>
            </trkpt>
            <trkpt lon="100.966096" lat="14.523813">
                <ele>18.880000</ele>
                <time>2015-09-27T04:59:19Z</time>
            </trkpt>
            <trkpt lon="100.966100" lat="14.523876">
                <ele>19.840000</ele>
                <time>2015-09-27T04:59:30Z</time>
            </trkpt>
            <trkpt lon="100.966124" lat="14.524089">
                <ele>22.730000</ele>
                <time>2015-09-27T04:59:42Z</time>
            </trkpt>
            <trkpt lon="100.966134" lat="14.524265">
                <ele>23.210000</ele>
                <time>2015-09-27T04:59:51Z</time>
            </trkpt>
            <trkpt lon="100.966150" lat="14.524530">
                <ele>23.210000</ele>
                <time>2015-09-27T05:00:06Z</time>
            </trkpt>
            <trkpt lon="100.966133" lat="14.524668">
                <ele>23.690000</ele>
                <time>2015-09-27T05:00:17Z</time>
            </trkpt>
            <trkpt lon="100.966179" lat="14.524803">
                <ele>22.730000</ele>
                <time>2015-09-27T05:00:29Z</time>
            </trkpt>
            <trkpt lon="100.966255" lat="14.524848">
                <ele>20.810000</ele>
                <time>2015-09-27T05:00:42Z</time>
            </trkpt>
            <trkpt lon="100.966590" lat="14.524908">
                <ele>22.250000</ele>
                <time>2015-09-27T05:00:55Z</time>
            </trkpt>
            <trkpt lon="100.966942" lat="14.524976">
                <ele>22.730000</ele>
                <time>2015-09-27T05:01:08Z</time>
            </trkpt>
            <trkpt lon="100.967307" lat="14.525014">
                <ele>21.770000</ele>
                <time>2015-09-27T05:01:21Z</time>
            </trkpt>
            <trkpt lon="100.967378" lat="14.524966">
                <ele>21.770000</ele>
                <time>2015-09-27T05:01:31Z</time>
            </trkpt>
            <trkpt lon="100.967413" lat="14.524958">
                <ele>21.290000</ele>
                <time>2015-09-27T05:01:46Z</time>
            </trkpt>
            <trkpt lon="100.967424" lat="14.524960">
                <ele>21.290000</ele>
                <time>2015-09-27T05:01:57Z</time>
            </trkpt>
            <trkpt lon="100.967694" lat="14.524883">
                <ele>22.250000</ele>
                <time>2015-09-27T05:02:10Z</time>
            </trkpt>
            <trkpt lon="100.968176" lat="14.525024">
                <ele>20.810000</ele>
                <time>2015-09-27T05:02:25Z</time>
            </trkpt>
            <trkpt lon="100.968242" lat="14.525333">
                <ele>20.810000</ele>
                <time>2015-09-27T05:02:35Z</time>
            </trkpt>
            <trkpt lon="100.968354" lat="14.525875">
                <ele>21.290000</ele>
                <time>2015-09-27T05:02:50Z</time>
            </trkpt>
            <trkpt lon="100.968430" lat="14.526086">
                <ele>21.770000</ele>
                <time>2015-09-27T05:02:57Z</time>
            </trkpt>
            <trkpt lon="100.968453" lat="14.526092">
                <ele>21.770000</ele>
                <time>2015-09-27T05:02:58Z</time>
            </trkpt>
            <trkpt lon="100.968471" lat="14.526090">
                <ele>21.770000</ele>
                <time>2015-09-27T05:02:59Z</time>
            </trkpt>
            <trkpt lon="100.968490" lat="14.526086">
                <ele>21.770000</ele>
                <time>2015-09-27T05:03:00Z</time>
            </trkpt>
        </trkseg>
    </trk>
</gpx>